Observation data for Boys Ranch on 03/24/2019      Previous  Date       Current Mesonet Observations  Soil Data  Daily Summary Page  Observations in Plain Language
KBY1 240500Z 04000KT 05/01 A2997 RMK A01 T00540012  RH  075%=      5-min Rain = 0
KBY1 240501Z 00000KT 05/01 A2997 RMK A01 T00520011  RH  075%=      5-min Rain = 0
KBY1 240502Z 04001KT 05/01 A2997 RMK A01 T00530010  RH  074%=      5-min Rain = 0
KBY1 240503Z 04000KT 06/01 A2997 RMK A01 T00550010  RH  073%=      5-min Rain = 0
KBY1 240504Z 35001KT 06/01 A2997 RMK A01 T00560011  RH  072%=      5-min Rain = 0
KBY1 240505Z 36002KT 06/01 A2997 RMK A01 T00570011  RH  072%=      5-min Rain = 0
KBY1 240506Z 00003KT 06/01 A2997 RMK A01 T00600011  RH  071%=      5-min Rain = 0
KBY1 240507Z 02002KT 06/01 A2997 RMK A01 T00620011  RH  070%=      5-min Rain = 0
KBY1 240508Z 01002KT 06/01 A2997 RMK A01 T00620011  RH  069%=      5-min Rain = 0
KBY1 240509Z 36002KT 06/01 A2998 RMK A01 T00630011  RH  069%=      5-min Rain = 0
KBY1 240510Z 35000KT 06/01 A2998 RMK A01 T00620013  RH  071%=      5-min Rain = 0
KBY1 240511Z 05001KT 06/01 A2998 RMK A01 T00590011  RH  071%=      5-min Rain = 0
KBY1 240512Z 05001KT 06/01 A2998 RMK A01 T00580008  RH  070%=      5-min Rain = 0
KBY1 240513Z 05002KT 06/01 A2997 RMK A01 T00590008  RH  070%=      5-min Rain = 0
KBY1 240514Z 06001KT 06/01 A2997 RMK A01 T00580008  RH  070%=      5-min Rain = 0
KBY1 240515Z 06002KT 06/01 A2997 RMK A01 T00570007  RH  070%=      5-min Rain = 0
KBY1 240516Z 07000KT 05/01 A2997 RMK A01 T00540006  RH  071%=      5-min Rain = 0
KBY1 240517Z 17000KT 05/01 A2997 RMK A01 T00500005  RH  073%=      5-min Rain = 0
KBY1 240518Z 19001KT 05/01 A2997 RMK A01 T00470005  RH  074%=      5-min Rain = 0
KBY1 240519Z 19001KT 05/01 A2997 RMK A01 T00460007  RH  075%=      5-min Rain = 0
KBY1 240520Z 19001KT 05/01 A2997 RMK A01 T00470008  RH  076%=      5-min Rain = 0
KBY1 240521Z 20001KT 05/01 A2997 RMK A01 T00480009  RH  076%=      5-min Rain = 0
KBY1 240522Z 22001KT 05/01 A2997 RMK A01 T00490009  RH  076%=      5-min Rain = 0
KBY1 240523Z 23003KT 05/01 A2997 RMK A01 T00510010  RH  075%=      5-min Rain = 0
KBY1 240524Z 24005KT 05/01 A2997 RMK A01 T00530011  RH  074%=      5-min Rain = 0
KBY1 240525Z 24004KT 05/01 A2998 RMK A01 T00510011  RH  075%=      5-min Rain = 0
KBY1 240526Z 24004KT 05/01 A2998 RMK A01 T00480011  RH  077%=      5-min Rain = 0
KBY1 240527Z 25006KT 05/01 A2998 RMK A01 T00460011  RH  078%=      5-min Rain = 0
KBY1 240528Z 26006KT 05/01 A2998 RMK A01 T00460010  RH  078%=      5-min Rain = 0
KBY1 240529Z 26008KT 05/01 A2998 RMK A01 T00520011  RH  075%=      5-min Rain = 0
KBY1 240530Z 27007KT 06/01 A2998 RMK A01 T00560010  RH  072%=      5-min Rain = 0
KBY1 240531Z 28007KT 06/01 A2998 RMK A01 T00580008  RH  070%=      5-min Rain = 0
KBY1 240532Z 28008KT 06/01 A2998 RMK A01 T00580009  RH  070%=      5-min Rain = 0
KBY1 240533Z 28009KT 06/01 A2998 RMK A01 T00570008  RH  071%=      5-min Rain = 0
KBY1 240534Z 29010KT 06/01 A2999 RMK A01 T00570006  RH  070%=      5-min Rain = 0
KBY1 240535Z 30008KT 06/00 A2999 RMK A01 T00580004  RH  069%=      5-min Rain = 0
KBY1 240536Z 30008KT 06/00 A2998 RMK A01 T00590004  RH  068%=      5-min Rain = 0
KBY1 240537Z 30009KT 06/00 A2999 RMK A01 T00610004  RH  067%=      5-min Rain = 0
KBY1 240538Z 30010KT 06/00 A2999 RMK A01 T00620004  RH  066%=      5-min Rain = 0
KBY1 240539Z 32011KT 06/01 A2999 RMK A01 T00640005  RH  066%=      5-min Rain = 0
KBY1 240540Z 33013KT 06/01 A30 RMK A01 T00630006  RH  067%=      5-min Rain = 0
KBY1 240541Z 32010KT 06/01 A30 RMK A01 T00610006  RH  068%=      5-min Rain = 0
KBY1 240542Z 32009KT 06/01 A30 RMK A01 T00600006  RH  068%=      5-min Rain = 0
KBY1 240543Z 33006KT 06/01 A30 RMK A01 T00600006  RH  068%=      5-min Rain = 0
KBY1 240544Z 35007KT 06/01 A2999 RMK A01 T00610006  RH  068%=      5-min Rain = 0
KBY1 240545Z 34005KT 07/01 A2999 RMK A01 T00690006  RH  064%=      5-min Rain = 0
KBY1 240546Z 34005KT 07/01 A2999 RMK A01 T00730006  RH  062%=      5-min Rain = 0
KBY1 240547Z 35006KT 07/01 A30 RMK A01 T00740005  RH  062%=      5-min Rain = 0
KBY1 240548Z 35009KT 08/01 A30 RMK A01 T00750005  RH  061%=      5-min Rain = 0
KBY1 240549Z 35012KT 08/01 A30 RMK A01 T00780007  RH  061%=      5-min Rain = 0
KBY1 240550Z 00010KT 09/01 A30 RMK A01 T00850010  RH  059%=      5-min Rain = 0
KBY1 240551Z 01010KT 09/01 A30 RMK A01 T00890011  RH  058%=      5-min Rain = 0
KBY1 240552Z 01010G15KT 09/01 A2999 RMK A01 T00910011  RH  057%=      5-min Rain = 0
KBY1 240553Z 02008KT 09/01 A2999 RMK A01 T00930011  RH  057%=      5-min Rain = 0
KBY1 240554Z 02011KT 09/01 A2999 RMK A01 T00940011  RH  056%=      5-min Rain = 0
KBY1 240555Z 02011KT 09/01 A30 RMK A01 T00940011  RH  056%=      5-min Rain = 0
KBY1 240556Z 02012KT 09/01 A30 RMK A01 T00940012  RH  056%=      5-min Rain = 0
KBY1 240557Z 02011KT 09/01 A30 RMK A01 T00940014  RH  057%=      5-min Rain = 0
KBY1 240558Z 03010KT 09/02 A30 RMK A01 T00940016  RH  058%=      5-min Rain = 0
KBY1 240559Z 02009KT 09/02 A30 RMK A01 T00920019  RH  060%=      5-min Rain = 0
KBY1 240600Z 02012KT 09/02 A30 RMK A01 T00910021  RH  061%=      5-min Rain = 0
KBY1 240601Z 02011KT 09/02 A30 RMK A01 T00910023  RH  063%=      5-min Rain = 0
KBY1 240602Z 01014KT 09/03 A30 RMK A01 T00900025  RH  063%=      5-min Rain = 0
KBY1 240603Z 01011KT 09/03 A30 RMK A01 T00900025  RH  064%=      5-min Rain = 0
KBY1 240604Z 01012KT 09/03 A30 RMK A01 T00890025  RH  064%=      5-min Rain = 0
KBY1 240605Z 02010KT 09/03 A30 RMK A01 T00880026  RH  065%=      5-min Rain = 0
KBY1 240606Z 02012KT 09/03 A30 RMK A01 T00880026  RH  065%=      5-min Rain = 0
KBY1 240607Z 02013KT 09/03 A30 RMK A01 T00870026  RH  065%=      5-min Rain = 0
KBY1 240608Z 02012KT 09/03 A30 RMK A01 T00870026  RH  066%=      5-min Rain = 0
KBY1 240609Z 02013G18KT 09/03 A30 RMK A01 T00860026  RH  066%=      5-min Rain = 0
KBY1 240610Z 02012KT 09/03 A30 RMK A01 T00860027  RH  066%=      5-min Rain = 0
KBY1 240611Z 02012KT 09/03 A30 RMK A01 T00850026  RH  066%=      5-min Rain = 0
KBY1 240612Z 02013G19KT 08/03 A30 RMK A01 T00840027  RH  067%=      5-min Rain = 0
KBY1 240613Z 02017KT 08/03 A30 RMK A01 T00840027  RH  067%=      5-min Rain = 0
KBY1 240614Z 03014KT 08/03 A2999 RMK A01 T00840026  RH  067%=      5-min Rain = 0
KBY1 240615Z 03015KT 08/03 A2999 RMK A01 T00840026  RH  067%=      5-min Rain = 0
KBY1 240616Z 03015KT 08/03 A2999 RMK A01 T00840027  RH  067%=      5-min Rain = 0
KBY1 240617Z 03016G21KT 08/03 A2999 RMK A01 T00840026  RH  067%=      5-min Rain = 0
KBY1 240618Z 03017G22KT 08/03 A2999 RMK A01 T00840026  RH  067%=      5-min Rain = 0
KBY1 240619Z 03017KT 08/03 A2999 RMK A01 T00840026  RH  067%=      5-min Rain = 0
KBY1 240620Z 03015G21KT 08/03 A2999 RMK A01 T00840026  RH  067%=      5-min Rain = 0
KBY1 240621Z 03018KT 08/03 A2999 RMK A01 T00840025  RH  066%=      5-min Rain = 0
KBY1 240622Z 03018KT 09/03 A2999 RMK A01 T00850025  RH  066%=      5-min Rain = 0
KBY1 240623Z 03016KT 09/03 A2999 RMK A01 T00850025  RH  066%=      5-min Rain = 0
KBY1 240624Z 03017KT 09/03 A2999 RMK A01 T00850025  RH  066%=      5-min Rain = 0
KBY1 240625Z 04015KT 09/03 A2999 RMK A01 T00850026  RH  066%=      5-min Rain = 0
KBY1 240626Z 04015KT 08/03 A2999 RMK A01 T00840026  RH  067%=      5-min Rain = 0
KBY1 240627Z 03016KT 08/03 A2999 RMK A01 T00840026  RH  067%=      5-min Rain = 0
KBY1 240628Z 03015KT 08/03 A2999 RMK A01 T00840025  RH  067%=      5-min Rain = 0
KBY1 240629Z 04015KT 08/03 A2999 RMK A01 T00840025  RH  067%=      5-min Rain = 0
KBY1 240630Z 03016KT 08/03 A2999 RMK A01 T00830025  RH  067%=      5-min Rain = 0
KBY1 240631Z 03015KT 08/03 A2999 RMK A01 T00830025  RH  067%=      5-min Rain = 0
KBY1 240632Z 04014G19KT 08/03 A2999 RMK A01 T00830025  RH  067%=      5-min Rain = 0
KBY1 240633Z 03015KT 08/03 A2999 RMK A01 T00830025  RH  067%=      5-min Rain = 0
KBY1 240634Z 03017KT 08/03 A2999 RMK A01 T00830025  RH  067%=      5-min Rain = 0
KBY1 240635Z 03017KT 08/02 A2999 RMK A01 T00830024  RH  066%=      5-min Rain = 0
KBY1 240636Z 03016KT 08/02 A2999 RMK A01 T00840024  RH  066%=      5-min Rain = 0
KBY1 240637Z 03015KT 08/03 A2999 RMK A01 T00840025  RH  066%=      5-min Rain = 0
KBY1 240638Z 03015KT 08/02 A2999 RMK A01 T00830024  RH  066%=      5-min Rain = 0
KBY1 240639Z 02016KT 08/02 A2999 RMK A01 T00830024  RH  066%=      5-min Rain = 0
KBY1 240640Z 02015G20KT 08/02 A2999 RMK A01 T00830024  RH  066%=      5-min Rain = 0
KBY1 240641Z 02015G20KT 08/02 A2999 RMK A01 T00830024  RH  066%=      5-min Rain = 0
KBY1 240642Z 02013G20KT 08/02 A30 RMK A01 T00830024  RH  066%=      5-min Rain = 0
KBY1 240643Z 02014KT 08/02 A30 RMK A01 T00830023  RH  066%=      5-min Rain = 0
KBY1 240644Z 02013KT 08/02 A30 RMK A01 T00830024  RH  066%=      5-min Rain = 0
KBY1 240645Z 01011KT 08/02 A30 RMK A01 T00820024  RH  066%=      5-min Rain = 0
KBY1 240646Z 01013KT 08/02 A30 RMK A01 T00820023  RH  066%=      5-min Rain = 0
KBY1 240647Z 02011KT 08/02 A3001 RMK A01 T00820022  RH  066%=      5-min Rain = 0
KBY1 240648Z 01011KT 08/02 A3001 RMK A01 T00820022  RH  066%=      5-min Rain = 0
KBY1 240649Z 01010KT 08/02 A3001 RMK A01 T00820022  RH  066%=      5-min Rain = 0
KBY1 240650Z 01010KT 08/02 A3001 RMK A01 T00820022  RH  066%=      5-min Rain = 0
KBY1 240651Z 01011KT 08/02 A3001 RMK A01 T00820022  RH  066%=      5-min Rain = 0
KBY1 240652Z 01012KT 08/02 A3001 RMK A01 T00820022  RH  066%=      5-min Rain = 0
KBY1 240653Z 01011KT 08/02 A3001 RMK A01 T00820023  RH  066%=      5-min Rain = 0
KBY1 240654Z 01010KT 08/02 A3001 RMK A01 T00810023  RH  067%=      5-min Rain = 0
KBY1 240655Z 01010KT 08/02 A3001 RMK A01 T00800023  RH  067%=      5-min Rain = 0
KBY1 240656Z 01010KT 08/02 A3002 RMK A01 T00790024  RH  068%=      5-min Rain = 0
KBY1 240657Z 01011KT 08/02 A3002 RMK A01 T00790024  RH  068%=      5-min Rain = 0
KBY1 240658Z 01012KT 08/02 A3002 RMK A01 T00790024  RH  068%=      5-min Rain = 0
KBY1 240659Z 00016KT 08/02 A3002 RMK A01 T00790024  RH  068%=      5-min Rain = 0
KBY1 240700Z 01012G17KT 08/03 A3002 RMK A01 T00790025  RH  069%=      5-min Rain = 0
KBY1 240701Z 36010KT 08/03 A3002 RMK A01 T00780025  RH  069%=      5-min Rain = 0
KBY1 240702Z 00009KT 08/03 A3002 RMK A01 T00780025  RH  069%=      5-min Rain = 0
KBY1 240703Z 36007G13KT 08/03 A3002 RMK A01 T00770025  RH  070%=      5-min Rain = 0
KBY1 240704Z 36006KT 08/03 A3003 RMK A01 T00760025  RH  070%=      5-min Rain = 0
KBY1 240705Z 34006KT 08/03 A3003 RMK A01 T00750025  RH  070%=      5-min Rain = 0
KBY1 240706Z 34006KT 08/03 A3003 RMK A01 T00750026  RH  071%=      5-min Rain = 0
KBY1 240707Z 35008KT 08/03 A3003 RMK A01 T00750025  RH  071%=      5-min Rain = 0
KBY1 240708Z 32004KT 08/03 A3003 RMK A01 T00750026  RH  071%=      5-min Rain = 0
KBY1 240709Z 31005G12KT 08/03 A3003 RMK A01 T00750026  RH  071%=      5-min Rain = 0
KBY1 240710Z 30006KT 08/03 A3003 RMK A01 T00750027  RH  071%=      5-min Rain = 0
KBY1 240711Z 27006KT 08/03 A3004 RMK A01 T00750027  RH  072%=      5-min Rain = 0
KBY1 240712Z 25006KT 07/03 A3004 RMK A01 T00740026  RH  071%=      5-min Rain = 0
KBY1 240713Z 24007KT 07/03 A3004 RMK A01 T00740026  RH  071%=      5-min Rain = 0
KBY1 240714Z 24006KT 07/03 A3004 RMK A01 T00740026  RH  072%=      5-min Rain = 0
KBY1 240715Z 25006KT 07/03 A3004 RMK A01 T00740026  RH  072%=      5-min Rain = 0
KBY1 240716Z 26007KT 07/03 A3004 RMK A01 T00730027  RH  073%=      5-min Rain = 0
KBY1 240717Z 27005KT 07/03 A3004 RMK A01 T00710027  RH  074%=      5-min Rain = 0
KBY1 240718Z 27005KT 07/03 A3004 RMK A01 T00710028  RH  074%=      5-min Rain = 0
KBY1 240719Z 27005KT 07/03 A3004 RMK A01 T00710028  RH  074%=      5-min Rain = 0
KBY1 240720Z 29006KT 07/03 A3004 RMK A01 T00700028  RH  075%=      5-min Rain = 0
KBY1 240721Z 29005KT 07/03 A3004 RMK A01 T00700028  RH  075%=      5-min Rain = 0
KBY1 240722Z 28003KT 07/03 A3004 RMK A01 T00700028  RH  075%=      5-min Rain = 0
KBY1 240723Z 28004KT 07/03 A3004 RMK A01 T00690028  RH  075%=      5-min Rain = 0
KBY1 240724Z 27005KT 07/03 A3004 RMK A01 T00690028  RH  075%=      5-min Rain = 0
KBY1 240725Z 28006KT 07/03 A3004 RMK A01 T00680028  RH  075%=      5-min Rain = 0
KBY1 240726Z 29005KT 07/03 A3004 RMK A01 T00690028  RH  076%=      5-min Rain = 0
KBY1 240727Z 30008KT 07/03 A3005 RMK A01 T00690029  RH  076%=      5-min Rain = 0
KBY1 240728Z 30006KT 07/03 A3005 RMK A01 T00690029  RH  076%=      5-min Rain = 0
KBY1 240729Z 33007KT 07/03 A3005 RMK A01 T00700030  RH  075%=      5-min Rain = 0
KBY1 240730Z 32006KT 07/03 A3005 RMK A01 T00710030  RH  075%=      5-min Rain = 0
KBY1 240731Z 32006KT 07/03 A3005 RMK A01 T00710030  RH  075%=      5-min Rain = 0
KBY1 240732Z 33005KT 07/03 A3005 RMK A01 T00710030  RH  075%=      5-min Rain = 0
KBY1 240733Z 32008G13KT 07/03 A3005 RMK A01 T00710029  RH  075%=      5-min Rain = 0
KBY1 240734Z 32007KT 07/03 A3005 RMK A01 T00710029  RH  075%=      5-min Rain = 0
KBY1 240735Z 32007KT 07/03 A3005 RMK A01 T00700029  RH  075%=      5-min Rain = 0
KBY1 240736Z 32006KT 07/03 A3005 RMK A01 T00700029  RH  075%=      5-min Rain = 0
KBY1 240737Z 32005KT 07/03 A3005 RMK A01 T00700029  RH  075%=      5-min Rain = 0
KBY1 240738Z 32005KT 07/03 A3005 RMK A01 T00700028  RH  075%=      5-min Rain = 0
KBY1 240739Z 31006KT 07/03 A3005 RMK A01 T00700029  RH  075%=      5-min Rain = 0
KBY1 240740Z 32005KT 07/03 A3005 RMK A01 T00700029  RH  075%=      5-min Rain = 0
KBY1 240741Z 32006KT 07/03 A3005 RMK A01 T00690028  RH  075%=      5-min Rain = 0
KBY1 240742Z 32005KT 07/03 A3005 RMK A01 T00690028  RH  075%=      5-min Rain = 0
KBY1 240743Z 32008KT 07/03 A3005 RMK A01 T00690028  RH  075%=      5-min Rain = 0
KBY1 240744Z 31004KT 07/03 A3005 RMK A01 T00690028  RH  075%=      5-min Rain = 0
KBY1 240745Z 31004KT 07/03 A3005 RMK A01 T00680027  RH  075%=      5-min Rain = 0
KBY1 240746Z 30005KT 07/03 A3005 RMK A01 T00680027  RH  075%=      5-min Rain = 0
KBY1 240747Z 30004KT 07/03 A3005 RMK A01 T00680027  RH  075%=      5-min Rain = 0
KBY1 240748Z 28003KT 07/03 A3005 RMK A01 T00680027  RH  075%=      5-min Rain = 0
KBY1 240749Z 27004KT 07/03 A3005 RMK A01 T00680027  RH  075%=      5-min Rain = 0
KBY1 240750Z 27005KT 07/03 A3005 RMK A01 T00670026  RH  075%=      5-min Rain = 0
KBY1 240751Z 31004KT 07/03 A3005 RMK A01 T00660026  RH  075%=      5-min Rain = 0
KBY1 240752Z 32006KT 07/03 A3005 RMK A01 T00660025  RH  075%=      5-min Rain = 0
KBY1 240753Z 33005KT 07/03 A3005 RMK A01 T00660025  RH  075%=      5-min Rain = 0
KBY1 240754Z 31005KT 07/02 A3005 RMK A01 T00660024  RH  074%=      5-min Rain = 0
KBY1 240755Z 31005KT 07/02 A3005 RMK A01 T00670024  RH  074%=      5-min Rain = 0
KBY1 240756Z 31005KT 07/02 A3005 RMK A01 T00670024  RH  074%=      5-min Rain = 0
KBY1 240757Z 29003KT 07/02 A3005 RMK A01 T00670024  RH  074%=      5-min Rain = 0
KBY1 240758Z 28005KT 07/02 A3005 RMK A01 T00660024  RH  074%=      5-min Rain = 0
KBY1 240759Z 30005KT 07/02 A3006 RMK A01 T00660024  RH  074%=      5-min Rain = 0
KBY1 240800Z 31006KT 07/02 A3006 RMK A01 T00660024  RH  074%=      5-min Rain = 0
KBY1 240801Z 31006KT 07/02 A3006 RMK A01 T00660023  RH  074%=      5-min Rain = 0
KBY1 240802Z 33006KT 07/02 A3006 RMK A01 T00660023  RH  074%=      5-min Rain = 0
KBY1 240803Z 33005KT 07/02 A3006 RMK A01 T00660023  RH  074%=      5-min Rain = 0
KBY1 240804Z 32007KT 07/02 A3006 RMK A01 T00660023  RH  074%=      5-min Rain = 0
KBY1 240805Z 33005KT 07/02 A3006 RMK A01 T00660023  RH  074%=      5-min Rain = 0
KBY1 240806Z 32004KT 07/02 A3006 RMK A01 T00650023  RH  074%=      5-min Rain = 0
KBY1 240807Z 30006G11KT 07/02 A3006 RMK A01 T00650023  RH  074%=      5-min Rain = 0
KBY1 240808Z 32006KT 07/02 A3006 RMK A01 T00650023  RH  074%=      5-min Rain = 0
KBY1 240809Z 32006KT 07/02 A3006 RMK A01 T00660023  RH  074%=      5-min Rain = 0
KBY1 240810Z 32005KT 07/02 A3006 RMK A01 T00660022  RH  074%=      5-min Rain = 0
KBY1 240811Z 31006KT 07/02 A3006 RMK A01 T00660023  RH  074%=      5-min Rain = 0
KBY1 240812Z 33005KT 07/02 A3006 RMK A01 T00650023  RH  074%=      5-min Rain = 0
KBY1 240813Z 34005KT 07/02 A3006 RMK A01 T00650022  RH  074%=      5-min Rain = 0
KBY1 240814Z 33006KT 06/02 A3006 RMK A01 T00640022  RH  074%=      5-min Rain = 0
KBY1 240815Z 32004KT 07/02 A3006 RMK A01 T00650023  RH  074%=      5-min Rain = 0
KBY1 240816Z 32005KT 07/02 A3006 RMK A01 T00650022  RH  074%=      5-min Rain = 0
KBY1 240817Z 31005KT 07/02 A3006 RMK A01 T00650022  RH  074%=      5-min Rain = 0
KBY1 240818Z 32004KT 06/02 A3006 RMK A01 T00640022  RH  074%=      5-min Rain = 0
KBY1 240819Z 32007KT 07/02 A3006 RMK A01 T00650022  RH  074%=      5-min Rain = 0
KBY1 240820Z 33005KT 07/02 A3006 RMK A01 T00650022  RH  074%=      5-min Rain = 0
KBY1 240821Z 32004KT 07/02 A3006 RMK A01 T00660022  RH  073%=      5-min Rain = 0
KBY1 240822Z 32004KT 07/02 A3006 RMK A01 T00660022  RH  074%=      5-min Rain = 0
KBY1 240823Z 32004KT 07/02 A3006 RMK A01 T00650021  RH  074%=      5-min Rain = 0
KBY1 240824Z 32005KT 07/02 A3006 RMK A01 T00650021  RH  074%=      5-min Rain = 0
KBY1 240825Z 32006KT 07/02 A3006 RMK A01 T00650022  RH  074%=      5-min Rain = 0
KBY1 240826Z 32004KT 06/02 A3006 RMK A01 T00640022  RH  074%=      5-min Rain = 0
KBY1 240827Z 31004KT 07/02 A3006 RMK A01 T00650022  RH  074%=      5-min Rain = 0
KBY1 240828Z 31006KT 06/02 A3006 RMK A01 T00640022  RH  074%=      5-min Rain = 0
KBY1 240829Z 31005KT 06/02 A3006 RMK A01 T00640021  RH  074%=      5-min Rain = 0
KBY1 240830Z 30005KT 06/02 A3006 RMK A01 T00640021  RH  074%=      5-min Rain = 0
KBY1 240831Z 30005KT 06/02 A3006 RMK A01 T00640021  RH  074%=      5-min Rain = 0
KBY1 240832Z 29004KT 06/02 A3006 RMK A01 T00640020  RH  074%=      5-min Rain = 0
KBY1 240833Z 26004KT 06/02 A3006 RMK A01 T00640020  RH  074%=      5-min Rain = 0
KBY1 240834Z 27004KT 06/02 A3006 RMK A01 T00630020  RH  074%=      5-min Rain = 0
KBY1 240835Z 27003KT 06/02 A3006 RMK A01 T00610020  RH  074%=      5-min Rain = 0
KBY1 240836Z 27003KT 06/02 A3006 RMK A01 T00600019  RH  075%=      5-min Rain = 0
KBY1 240837Z 27003KT 06/02 A3006 RMK A01 T00600019  RH  075%=      5-min Rain = 0
KBY1 240838Z 29003KT 06/02 A3006 RMK A01 T00610020  RH  075%=      5-min Rain = 0
KBY1 240839Z 29003KT 06/02 A3006 RMK A01 T00610019  RH  074%=      5-min Rain = 0
KBY1 240840Z 30004KT 06/02 A3006 RMK A01 T00610019  RH  075%=      5-min Rain = 0
KBY1 240841Z 31003KT 06/02 A3006 RMK A01 T00600019  RH  075%=      5-min Rain = 0
KBY1 240842Z 32004KT 06/02 A3006 RMK A01 T00590019  RH  075%=      5-min Rain = 0
KBY1 240843Z 33004KT 06/02 A3006 RMK A01 T00580018  RH  075%=      5-min Rain = 0
KBY1 240844Z 32004KT 06/02 A3006 RMK A01 T00570018  RH  076%=      5-min Rain = 0
KBY1 240845Z 32004KT 06/02 A3006 RMK A01 T00570018  RH  076%=      5-min Rain = 0
KBY1 240846Z 32004KT 06/02 A3006 RMK A01 T00570019  RH  076%=      5-min Rain = 0
KBY1 240847Z 32005KT 06/02 A3006 RMK A01 T00570019  RH  077%=      5-min Rain = 0
KBY1 240848Z 32005KT 06/02 A3006 RMK A01 T00570020  RH  077%=      5-min Rain = 0
KBY1 240849Z 32005KT 06/02 A3006 RMK A01 T00580021  RH  077%=      5-min Rain = 0
KBY1 240850Z 33005KT 06/02 A3006 RMK A01 T00590021  RH  077%=      5-min Rain = 0
KBY1 240851Z 32004KT 06/02 A3006 RMK A01 T00590020  RH  076%=      5-min Rain = 0
KBY1 240852Z 31005KT 06/02 A3006 RMK A01 T00580020  RH  077%=      5-min Rain = 0
KBY1 240853Z 30005KT 06/02 A3006 RMK A01 T00580020  RH  077%=      5-min Rain = 0
KBY1 240854Z 30004KT 06/02 A3006 RMK A01 T00590020  RH  076%=      5-min Rain = 0
KBY1 240855Z 29004KT 06/02 A3006 RMK A01 T00600020  RH  076%=      5-min Rain = 0
KBY1 240856Z 29004KT 06/02 A3006 RMK A01 T00600020  RH  075%=      5-min Rain = 0
KBY1 240857Z 28004KT 06/02 A3006 RMK A01 T00600019  RH  075%=      5-min Rain = 0
KBY1 240858Z 29004KT 06/02 A3006 RMK A01 T00600019  RH  075%=      5-min Rain = 0
KBY1 240859Z 29004KT 06/02 A3006 RMK A01 T00600020  RH  075%=      5-min Rain = 0
KBY1 240900Z 29004KT 06/02 A3006 RMK A01 T00600020  RH  075%=      5-min Rain = 0
KBY1 240901Z 28004KT 06/02 A3006 RMK A01 T00600020  RH  075%=      5-min Rain = 0
KBY1 240902Z 28003KT 06/02 A3006 RMK A01 T00600019  RH  075%=      5-min Rain = 0
KBY1 240903Z 27004KT 06/02 A3006 RMK A01 T00600019  RH  075%=      5-min Rain = 0
KBY1 240904Z 28005KT 06/02 A3006 RMK A01 T00590019  RH  076%=      5-min Rain = 0
KBY1 240905Z 29004KT 06/02 A3006 RMK A01 T00580019  RH  076%=      5-min Rain = 0
KBY1 240906Z 28004KT 06/02 A3006 RMK A01 T00580020  RH  077%=      5-min Rain = 0
KBY1 240907Z 29004KT 06/02 A3006 RMK A01 T00580020  RH  077%=      5-min Rain = 0
KBY1 240908Z 29004KT 06/02 A3006 RMK A01 T00580020  RH  077%=      5-min Rain = 0
KBY1 240909Z 29005KT 06/02 A3006 RMK A01 T00580020  RH  077%=      5-min Rain = 0
KBY1 240910Z 27005KT 06/02 A3006 RMK A01 T00580020  RH  077%=      5-min Rain = 0
KBY1 240911Z 27004KT 06/02 A3006 RMK A01 T00570020  RH  077%=      5-min Rain = 0
KBY1 240912Z 26003KT 06/02 A3006 RMK A01 T00560020  RH  077%=      5-min Rain = 0
KBY1 240913Z 25003KT 06/02 A3006 RMK A01 T00560020  RH  077%=      5-min Rain = 0
KBY1 240914Z 25003KT 05/02 A3006 RMK A01 T00540019  RH  078%=      5-min Rain = 0
KBY1 240915Z 26003KT 05/02 A3006 RMK A01 T00530019  RH  078%=      5-min Rain = 0
KBY1 240916Z 24002KT 05/02 A3006 RMK A01 T00530019  RH  079%=      5-min Rain = 0
KBY1 240917Z 24003KT 05/02 A3006 RMK A01 T00530019  RH  079%=      5-min Rain = 0
KBY1 240918Z 24004KT 05/02 A3006 RMK A01 T00520018  RH  079%=      5-min Rain = 0
KBY1 240919Z 23004KT 05/02 A3006 RMK A01 T00500017  RH  079%=      5-min Rain = 0
KBY1 240920Z 24004KT 05/02 A3006 RMK A01 T00480017  RH  080%=      5-min Rain = 0
KBY1 240921Z 24005KT 05/02 A3006 RMK A01 T00450016  RH  081%=      5-min Rain = 0
KBY1 240922Z 24005KT 04/02 A3006 RMK A01 T00440017  RH  082%=      5-min Rain = 0
KBY1 240923Z 24005KT 05/02 A3006 RMK A01 T00450018  RH  083%=      5-min Rain = 0
KBY1 240924Z 24005KT 05/02 A3006 RMK A01 T00460018  RH  082%=      5-min Rain = 0
KBY1 240925Z 25005KT 05/02 A3006 RMK A01 T00460018  RH  082%=      5-min Rain = 0
KBY1 240926Z 26004KT 05/02 A3007 RMK A01 T00450017  RH  082%=      5-min Rain = 0
KBY1 240927Z 26004KT 05/02 A3007 RMK A01 T00450018  RH  082%=      5-min Rain = 0
KBY1 240928Z 27005KT 05/02 A3007 RMK A01 T00470019  RH  082%=      5-min Rain = 0
KBY1 240929Z 26004KT 05/02 A3007 RMK A01 T00480019  RH  081%=      5-min Rain = 0
KBY1 240930Z 26004KT 05/02 A3007 RMK A01 T00490019  RH  080%=      5-min Rain = 0
KBY1 240931Z 26004KT 05/02 A3007 RMK A01 T00490018  RH  080%=      5-min Rain = 0
KBY1 240932Z 25003KT 05/02 A3007 RMK A01 T00490018  RH  080%=      5-min Rain = 0
KBY1 240933Z 25004KT 05/02 A3007 RMK A01 T00490018  RH  080%=      5-min Rain = 0
KBY1 240934Z 25004KT 05/02 A3007 RMK A01 T00480018  RH  081%=      5-min Rain = 0
KBY1 240935Z 25004KT 05/02 A3007 RMK A01 T00480018  RH  081%=      5-min Rain = 0
KBY1 240936Z 25004KT 05/02 A3007 RMK A01 T00480018  RH  081%=      5-min Rain = 0
KBY1 240937Z 25004KT 05/02 A3007 RMK A01 T00480018  RH  081%=      5-min Rain = 0
KBY1 240938Z 26004KT 05/02 A3007 RMK A01 T00480018  RH  081%=      5-min Rain = 0
KBY1 240939Z 25004KT 05/02 A3007 RMK A01 T00490019  RH  081%=      5-min Rain = 0
KBY1 240940Z 25004KT 05/02 A3007 RMK A01 T00500019  RH  081%=      5-min Rain = 0
KBY1 240941Z 25004KT 05/02 A3007 RMK A01 T00500019  RH  080%=      5-min Rain = 0
KBY1 240942Z 25004KT 05/02 A3006 RMK A01 T00500019  RH  080%=      5-min Rain = 0
KBY1 240943Z 25004KT 05/02 A3006 RMK A01 T00500019  RH  080%=      5-min Rain = 0
KBY1 240944Z 24004KT 05/02 A3006 RMK A01 T00500019  RH  080%=      5-min Rain = 0
KBY1 240945Z 25004KT 05/02 A3006 RMK A01 T00510019  RH  080%=      5-min Rain = 0
KBY1 240946Z 25004KT 05/02 A3006 RMK A01 T00510019  RH  080%=      5-min Rain = 0
KBY1 240947Z 24005KT 05/02 A3006 RMK A01 T00510019  RH  080%=      5-min Rain = 0
KBY1 240948Z 24005KT 05/02 A3006 RMK A01 T00500018  RH  080%=      5-min Rain = 0
KBY1 240949Z 24005KT 05/02 A3006 RMK A01 T00500019  RH  080%=      5-min Rain = 0
KBY1 240950Z 25004KT 05/02 A3006 RMK A01 T00510019  RH  080%=      5-min Rain = 0
KBY1 240951Z 25004KT 05/02 A3006 RMK A01 T00520019  RH  079%=      5-min Rain = 0
KBY1 240952Z 27003KT 05/02 A3006 RMK A01 T00520019  RH  079%=      5-min Rain = 0
KBY1 240953Z 27002KT 05/02 A3006 RMK A01 T00510018  RH  079%=      5-min Rain = 0
KBY1 240954Z 25003KT 05/02 A3006 RMK A01 T00510019  RH  079%=      5-min Rain = 0
KBY1 240955Z 26003KT 05/02 A3006 RMK A01 T00520019  RH  079%=      5-min Rain = 0
KBY1 240956Z 24002KT 05/02 A3007 RMK A01 T00520018  RH  078%=      5-min Rain = 0
KBY1 240957Z 19001KT 05/01 A3006 RMK A01 T00480011  RH  077%=      5-min Rain = 0
KBY1 240958Z 18002KT 04/01 A3006 RMK A01 T00440011  RH  079%=      5-min Rain = 0
KBY1 240959Z 18001KT 04/01 A3006 RMK A01 T00410010  RH  081%=      5-min Rain = 0
KBY1 241000Z 18000KT 04/01 A3006 RMK A01 T00390011  RH  082%=      5-min Rain = 0
KBY1 241001Z 00000KT 04/01 A3006 RMK A01 T00380011  RH  083%=      5-min Rain = 0
KBY1 241002Z 04000KT 04/01 A3006 RMK A01 T00370011  RH  083%=      5-min Rain = 0
KBY1 241003Z 00000KT 04/01 A3006 RMK A01 T00360012  RH  084%=      5-min Rain = 0
KBY1 241004Z 00000KT 04/01 A3006 RMK A01 T00360013  RH  085%=      5-min Rain = 0
KBY1 241005Z 00000KT 04/01 A3006 RMK A01 T00360013  RH  085%=      5-min Rain = 0
KBY1 241006Z 00000KT 04/01 A3006 RMK A01 T00360013  RH  085%=      5-min Rain = 0
KBY1 241007Z 00000KT 04/01 A3006 RMK A01 T00360014  RH  085%=      5-min Rain = 0
KBY1 241008Z 00000KT 04/01 A3006 RMK A01 T00370014  RH  085%=      5-min Rain = 0
KBY1 241009Z 00000KT 04/01 A3006 RMK A01 T00370014  RH  085%=      5-min Rain = 0
KBY1 241010Z 12000KT 04/01 A3006 RMK A01 T00370014  RH  085%=      5-min Rain = 0
KBY1 241011Z 15001KT 04/01 A3006 RMK A01 T00360011  RH  084%=      5-min Rain = 0
KBY1 241012Z 16001KT 03/01 A3006 RMK A01 T00340011  RH  085%=      5-min Rain = 0
KBY1 241013Z 17001KT 03/01 A3006 RMK A01 T00330011  RH  085%=      5-min Rain = 0
KBY1 241014Z 19001KT 03/01 A3006 RMK A01 T00330012  RH  086%=      5-min Rain = 0
KBY1 241015Z 21001KT 03/01 A3006 RMK A01 T00330011  RH  086%=      5-min Rain = 0
KBY1 241016Z 23001KT 03/01 A3006 RMK A01 T00320012  RH  086%=      5-min Rain = 0
KBY1 241017Z 28001KT 03/01 A3006 RMK A01 T00320012  RH  087%=      5-min Rain = 0
KBY1 241018Z 29001KT 03/01 A3006 RMK A01 T00320013  RH  087%=      5-min Rain = 0
KBY1 241019Z 28002KT 03/01 A3006 RMK A01 T00330014  RH  087%=      5-min Rain = 0
KBY1 241020Z 28002KT 03/01 A3006 RMK A01 T00340014  RH  087%=      5-min Rain = 0
KBY1 241021Z 28003KT 04/01 A3006 RMK A01 T00350014  RH  087%=      5-min Rain = 0
KBY1 241022Z 28003KT 04/01 A3006 RMK A01 T00350014  RH  086%=      5-min Rain = 0
KBY1 241023Z 29003KT 04/02 A3006 RMK A01 T00370016  RH  086%=      5-min Rain = 0
KBY1 241024Z 29004KT 04/02 A3006 RMK A01 T00370015  RH  086%=      5-min Rain = 0
KBY1 241025Z 28004KT 04/02 A3006 RMK A01 T00380016  RH  086%=      5-min Rain = 0
KBY1 241026Z 28005KT 04/02 A3006 RMK A01 T00390018  RH  086%=      5-min Rain = 0
KBY1 241027Z 27004KT 04/02 A3006 RMK A01 T00420019  RH  085%=      5-min Rain = 0
KBY1 241028Z 27004KT 04/02 A3006 RMK A01 T00430018  RH  084%=      5-min Rain = 0
KBY1 241029Z 29004KT 04/02 A3006 RMK A01 T00440018  RH  083%=      5-min Rain = 0
KBY1 241030Z 28004KT 05/02 A3006 RMK A01 T00450018  RH  083%=      5-min Rain = 0
KBY1 241031Z 28003KT 05/02 A3006 RMK A01 T00450018  RH  083%=      5-min Rain = 0
KBY1 241032Z 29003KT 05/02 A3006 RMK A01 T00450018  RH  083%=      5-min Rain = 0
KBY1 241033Z 29003KT 04/02 A3006 RMK A01 T00440017  RH  082%=      5-min Rain = 0
KBY1 241034Z 29004KT 05/02 A3006 RMK A01 T00450018  RH  083%=      5-min Rain = 0
KBY1 241035Z 29004KT 04/02 A3006 RMK A01 T00440017  RH  082%=      5-min Rain = 0
KBY1 241036Z 29004KT 05/02 A3006 RMK A01 T00450018  RH  083%=      5-min Rain = 0
KBY1 241037Z 28004KT 05/02 A3006 RMK A01 T00460019  RH  082%=      5-min Rain = 0
KBY1 241038Z 28004KT 05/02 A3006 RMK A01 T00470018  RH  082%=      5-min Rain = 0
KBY1 241039Z 28004KT 05/02 A3006 RMK A01 T00470018  RH  082%=      5-min Rain = 0
KBY1 241040Z 29004KT 05/02 A3006 RMK A01 T00470018  RH  081%=      5-min Rain = 0
KBY1 241041Z 28004KT 05/02 A3006 RMK A01 T00470017  RH  081%=      5-min Rain = 0
KBY1 241042Z 27004KT 05/02 A3006 RMK A01 T00470018  RH  081%=      5-min Rain = 0
KBY1 241043Z 27004KT 05/02 A3006 RMK A01 T00470018  RH  082%=      5-min Rain = 0
KBY1 241044Z 26005KT 05/02 A3006 RMK A01 T00470019  RH  082%=      5-min Rain = 0
KBY1 241045Z 27004KT 05/02 A3006 RMK A01 T00470019  RH  082%=      5-min Rain = 0
KBY1 241046Z 25004KT 05/02 A3006 RMK A01 T00470019  RH  082%=      5-min Rain = 0
KBY1 241047Z 25004KT 05/02 A3006 RMK A01 T00470019  RH  082%=      5-min Rain = 0
KBY1 241048Z 26003KT 05/02 A3006 RMK A01 T00460018  RH  082%=      5-min Rain = 0
KBY1 241049Z 26004KT 05/02 A3006 RMK A01 T00460019  RH  082%=      5-min Rain = 0
KBY1 241050Z 26004KT 05/02 A3006 RMK A01 T00450019  RH  083%=      5-min Rain = 0
KBY1 241051Z 26004KT 04/02 A3006 RMK A01 T00440018  RH  083%=      5-min Rain = 0
KBY1 241052Z 28004KT 04/02 A3006 RMK A01 T00440018  RH  083%=      5-min Rain = 0
KBY1 241053Z 26003KT 04/02 A3006 RMK A01 T00430017  RH  083%=      5-min Rain = 0
KBY1 241054Z 26004KT 04/02 A3006 RMK A01 T00410016  RH  084%=      5-min Rain = 0
KBY1 241055Z 26003KT 04/02 A3006 RMK A01 T00400016  RH  084%=      5-min Rain = 0
KBY1 241056Z 26003KT 04/02 A3006 RMK A01 T00390016  RH  085%=      5-min Rain = 0
KBY1 241057Z 26004KT 04/02 A3006 RMK A01 T00380016  RH  086%=      5-min Rain = 0
KBY1 241058Z 26004KT 04/02 A3006 RMK A01 T00380016  RH  086%=      5-min Rain = 0
KBY1 241059Z 25004KT 04/02 A3006 RMK A01 T00370016  RH  086%=      5-min Rain = 0
KBY1 241100Z 26003KT 04/02 A3007 RMK A01 T00370015  RH  086%=      5-min Rain = 0
KBY1 241101Z 26004KT 04/02 A3007 RMK A01 T00360015  RH  086%=      5-min Rain = 0
KBY1 241102Z 26005KT 04/02 A3007 RMK A01 T00360015  RH  086%=      5-min Rain = 0
KBY1 241103Z 26005KT 04/02 A3007 RMK A01 T00360015  RH  087%=      5-min Rain = 0
KBY1 241104Z 26005KT 04/02 A3007 RMK A01 T00370017  RH  087%=      5-min Rain = 0
KBY1 241105Z 26005KT 04/02 A3007 RMK A01 T00390018  RH  086%=      5-min Rain = 0
KBY1 241106Z 26005KT 04/02 A3007 RMK A01 T00400017  RH  085%=      5-min Rain = 0
KBY1 241107Z 26005KT 04/02 A3007 RMK A01 T00400017  RH  085%=      5-min Rain = 0
KBY1 241108Z 26005KT 04/02 A3007 RMK A01 T00410017  RH  084%=      5-min Rain = 0
KBY1 241109Z 26005KT 04/02 A3007 RMK A01 T00410017  RH  084%=      5-min Rain = 0
KBY1 241110Z 25005KT 04/02 A3007 RMK A01 T00410017  RH  084%=      5-min Rain = 0
KBY1 241111Z 24005KT 04/02 A3007 RMK A01 T00410017  RH  084%=      5-min Rain = 0
KBY1 241112Z 25004KT 04/02 A3007 RMK A01 T00410017  RH  084%=      5-min Rain = 0
KBY1 241113Z 25005KT 04/02 A3007 RMK A01 T00410017  RH  085%=      5-min Rain = 0
KBY1 241114Z 25004KT 04/02 A3007 RMK A01 T00410018  RH  085%=      5-min Rain = 0
KBY1 241115Z 26004KT 04/02 A3007 RMK A01 T00420018  RH  085%=      5-min Rain = 0
KBY1 241116Z 26005KT 04/02 A3007 RMK A01 T00420017  RH  084%=      5-min Rain = 0
KBY1 241117Z 26004KT 04/02 A3007 RMK A01 T00420017  RH  084%=      5-min Rain = 0
KBY1 241118Z 26004KT 04/02 A3007 RMK A01 T00420017  RH  084%=      5-min Rain = 0
KBY1 241119Z 28004KT 04/02 A3007 RMK A01 T00420017  RH  084%=      5-min Rain = 0
KBY1 241120Z 26005KT 04/02 A3007 RMK A01 T00430017  RH  083%=      5-min Rain = 0
KBY1 241121Z 26005KT 04/02 A3007 RMK A01 T00430017  RH  083%=      5-min Rain = 0
KBY1 241122Z 27005KT 04/02 A3007 RMK A01 T00440018  RH  083%=      5-min Rain = 0
KBY1 241123Z 27005KT 05/02 A3007 RMK A01 T00450018  RH  083%=      5-min Rain = 0
KBY1 241124Z 26005KT 05/02 A3007 RMK A01 T00460018  RH  082%=      5-min Rain = 0
KBY1 241125Z 27005KT 05/02 A3007 RMK A01 T00460018  RH  082%=      5-min Rain = 0
KBY1 241126Z 28004KT 05/02 A3007 RMK A01 T00460017  RH  081%=      5-min Rain = 0
KBY1 241127Z 28005KT 04/01 A3007 RMK A01 T00430014  RH  081%=      5-min Rain = 0
KBY1 241128Z 27005KT 04/01 A3007 RMK A01 T00410014  RH  083%=      5-min Rain = 0
KBY1 241129Z 27006KT 04/02 A3007 RMK A01 T00410016  RH  084%=      5-min Rain = 0
KBY1 241130Z 27006KT 04/02 A3007 RMK A01 T00430017  RH  083%=      5-min Rain = 0
KBY1 241131Z 27006KT 04/02 A3007 RMK A01 T00440017  RH  083%=      5-min Rain = 0
KBY1 241132Z 27005KT 04/02 A3007 RMK A01 T00440016  RH  082%=      5-min Rain = 0
KBY1 241133Z 27005KT 04/02 A3007 RMK A01 T00440016  RH  082%=      5-min Rain = 0
KBY1 241134Z 26005KT 04/02 A3007 RMK A01 T00430016  RH  082%=      5-min Rain = 0
KBY1 241135Z 26005KT 04/02 A3007 RMK A01 T00420015  RH  083%=      5-min Rain = 0
KBY1 241136Z 27005KT 04/01 A3008 RMK A01 T00400014  RH  083%=      5-min Rain = 0
KBY1 241137Z 26005KT 04/01 A3008 RMK A01 T00390014  RH  084%=      5-min Rain = 0
KBY1 241138Z 27005KT 04/02 A3008 RMK A01 T00390015  RH  084%=      5-min Rain = 0
KBY1 241139Z 28005KT 04/02 A3008 RMK A01 T00390016  RH  085%=      5-min Rain = 0
KBY1 241140Z 28005KT 04/02 A3007 RMK A01 T00390016  RH  085%=      5-min Rain = 0
KBY1 241141Z 28006KT 04/02 A3007 RMK A01 T00400016  RH  085%=      5-min Rain = 0
KBY1 241142Z 28006KT 04/02 A3007 RMK A01 T00390015  RH  084%=      5-min Rain = 0
KBY1 241143Z 28005KT 04/01 A3007 RMK A01 T00380014  RH  084%=      5-min Rain = 0
KBY1 241144Z 28005KT 04/01 A3007 RMK A01 T00370014  RH  085%=      5-min Rain = 0
KBY1 241145Z 27005KT 04/02 A3007 RMK A01 T00370015  RH  086%=      5-min Rain = 0
KBY1 241146Z 27006KT 04/02 A3008 RMK A01 T00380015  RH  085%=      5-min Rain = 0
KBY1 241147Z 27006KT 04/02 A3008 RMK A01 T00380015  RH  085%=      5-min Rain = 0
KBY1 241148Z 27005KT 04/02 A3008 RMK A01 T00390015  RH  085%=      5-min Rain = 0
KBY1 241149Z 27004KT 04/02 A3008 RMK A01 T00390015  RH  085%=      5-min Rain = 0
KBY1 241150Z 27005KT 04/02 A3008 RMK A01 T00390015  RH  085%=      5-min Rain = 0
KBY1 241151Z 27005KT 04/02 A3008 RMK A01 T00390015  RH  085%=      5-min Rain = 0
KBY1 241152Z 27005KT 04/02 A3008 RMK A01 T00390015  RH  084%=      5-min Rain = 0
KBY1 241153Z 27005KT 04/02 A3008 RMK A01 T00380015  RH  085%=      5-min Rain = 0
KBY1 241154Z 27005KT 04/02 A3008 RMK A01 T00390016  RH  085%=      5-min Rain = 0
KBY1 241155Z 27005KT 04/02 A3008 RMK A01 T00400016  RH  084%=      5-min Rain = 0
KBY1 241156Z 26005KT 04/02 A3008 RMK A01 T00400016  RH  084%=      5-min Rain = 0
KBY1 241157Z 27004KT 04/02 A3008 RMK A01 T00400015  RH  084%=      5-min Rain = 0
KBY1 241158Z 27004KT 04/02 A3008 RMK A01 T00390015  RH  084%=      5-min Rain = 0
KBY1 241159Z 27004KT 04/02 A3008 RMK A01 T00390015  RH  084%=      5-min Rain = 0
KBY1 241200Z 26004KT 04/02 A3008 RMK A01 T00380015  RH  085%=      5-min Rain = 0
KBY1 241201Z 27004KT 04/02 A3009 RMK A01 T00380015  RH  085%=      5-min Rain = 0
KBY1 241202Z 28004KT 04/02 A3009 RMK A01 T00370015  RH  085%=      5-min Rain = 0
KBY1 241203Z 28004KT 04/02 A3008 RMK A01 T00370015  RH  086%=      5-min Rain = 0
KBY1 241204Z 28005KT 04/02 A3008 RMK A01 T00370015  RH  085%=      5-min Rain = 0
KBY1 241205Z 29004KT 04/02 A3008 RMK A01 T00370015  RH  085%=      5-min Rain = 0
KBY1 241206Z 29004KT 04/02 A3008 RMK A01 T00370015  RH  085%=      5-min Rain = 0
KBY1 241207Z 28004KT 04/02 A3008 RMK A01 T00370015  RH  085%=      5-min Rain = 0
KBY1 241208Z 29004KT 04/02 A3008 RMK A01 T00370015  RH  086%=      5-min Rain = 0
KBY1 241209Z 29004KT 04/02 A3008 RMK A01 T00370015  RH  086%=      5-min Rain = 0
KBY1 241210Z 29003KT 04/02 A3008 RMK A01 T00370015  RH  085%=      5-min Rain = 0
KBY1 241211Z 27004KT 04/02 A3008 RMK A01 T00370015  RH  086%=      5-min Rain = 0
KBY1 241212Z 29002KT 04/02 A3008 RMK A01 T00370015  RH  086%=      5-min Rain = 0
KBY1 241213Z 27002KT 04/01 A3008 RMK A01 T00360014  RH  086%=      5-min Rain = 0
KBY1 241214Z 26003KT 03/01 A3008 RMK A01 T00330008  RH  084%=      5-min Rain = 0
KBY1 241215Z 25003KT 03/00 A3008 RMK A01 T00280004  RH  084%=      5-min Rain = 0
KBY1 241216Z 26001KT 03/00 A3008 RMK A01 T00250003  RH  086%=      5-min Rain = 0
KBY1 241217Z 27003KT 02/00 A3008 RMK A01 T00230003  RH  087%=      5-min Rain = 0
KBY1 241218Z 27002KT 02/00 A3008 RMK A01 T00210004  RH  088%=      5-min Rain = 0
KBY1 241219Z 29002KT 02/01 A3008 RMK A01 T00210005  RH  089%=      5-min Rain = 0
KBY1 241220Z 32002KT 02/00 A3008 RMK A01 T00190004  RH  090%=      5-min Rain = 0
KBY1 241221Z 31001KT 02/00 A3008 RMK A01 T00180003  RH  090%=      5-min Rain = 0
KBY1 241222Z 29001KT 02/00 A3008 RMK A01 T00170003  RH  091%=      5-min Rain = 0
KBY1 241223Z 26003KT 02/01 A3008 RMK A01 T00170005  RH  092%=      5-min Rain = 0
KBY1 241224Z 31001KT 02/01 A3009 RMK A01 T00170007  RH  093%=      5-min Rain = 0
KBY1 241225Z 01000KT 02/01 A3009 RMK A01 T00180008  RH  093%=      5-min Rain = 0
KBY1 241226Z 29001KT 02/01 A3008 RMK A01 T00180007  RH  093%=      5-min Rain = 0
KBY1 241227Z 28001KT 02/01 A3008 RMK A01 T00180007  RH  093%=      5-min Rain = 0
KBY1 241228Z 11001KT 02/01 A3008 RMK A01 T00170005  RH  092%=      5-min Rain = 0
KBY1 241229Z 11001KT 01/00 A3009 RMK A01 T00140000  RH  091%=      5-min Rain = 0
KBY1 241230Z 12001KT 01/M00 A3009 RMK A01 T00121001  RH  091%=      5-min Rain = 0
KBY1 241231Z 12001KT 01/00 A3009 RMK A01 T00120000  RH  092%=      5-min Rain = 0
KBY1 241232Z 12000KT 01/00 A3009 RMK A01 T00120002  RH  093%=      5-min Rain = 0
KBY1 241233Z 22001KT 01/00 A3009 RMK A01 T00120003  RH  094%=      5-min Rain = 0
KBY1 241234Z 23001KT 01/00 A3009 RMK A01 T00130004  RH  094%=      5-min Rain = 0
KBY1 241235Z 25001KT 01/00 A3009 RMK A01 T00130004  RH  094%=      5-min Rain = 0
KBY1 241236Z 28001KT 01/01 A3009 RMK A01 T00130005  RH  094%=      5-min Rain = 0
KBY1 241237Z 30001KT 01/01 A3009 RMK A01 T00140006  RH  095%=      5-min Rain = 0
KBY1 241238Z 28002KT 02/01 A3009 RMK A01 T00150007  RH  095%=      5-min Rain = 0
KBY1 241239Z 28002KT 02/01 A3009 RMK A01 T00170009  RH  095%=      5-min Rain = 0
KBY1 241240Z 28002KT 02/01 A3008 RMK A01 T00180010  RH  095%=      5-min Rain = 0
KBY1 241241Z 28003KT 02/01 A3009 RMK A01 T00190012  RH  095%=      5-min Rain = 0
KBY1 241242Z 27003KT 02/01 A3009 RMK A01 T00210013  RH  095%=      5-min Rain = 0
KBY1 241243Z 28003KT 02/02 A3009 RMK A01 T00240016  RH  094%=      5-min Rain = 0
KBY1 241244Z 27002KT 03/02 A3009 RMK A01 T00260016  RH  093%=      5-min Rain = 0
KBY1 241245Z 27002KT 03/01 A3009 RMK A01 T00260012  RH  091%=      5-min Rain = 0
KBY1 241246Z 25002KT 02/00 A3009 RMK A01 T00220004  RH  088%=      5-min Rain = 0
KBY1 241247Z 24002KT 02/M00 A3009 RMK A01 T00171001  RH  088%=      5-min Rain = 0
KBY1 241248Z 22001KT 02/00 A3009 RMK A01 T00160002  RH  090%=      5-min Rain = 0
KBY1 241249Z 21001KT 02/00 A3009 RMK A01 T00160003  RH  091%=      5-min Rain = 0
KBY1 241250Z 23001KT 02/00 A3009 RMK A01 T00150002  RH  091%=      5-min Rain = 0
KBY1 241251Z 27002KT 01/00 A3009 RMK A01 T00140003  RH  092%=      5-min Rain = 0
KBY1 241252Z 26003KT 02/00 A3009 RMK A01 T00150004  RH  093%=      5-min Rain = 0
KBY1 241253Z 24001KT 02/00 A3009 RMK A01 T00150004  RH  093%=      5-min Rain = 0
KBY1 241254Z 23002KT 01/00 A3009 RMK A01 T00140003  RH  092%=      5-min Rain = 0
KBY1 241255Z 24002KT 02/01 A3009 RMK A01 T00150005  RH  093%=      5-min Rain = 0
KBY1 241256Z 24001KT 02/01 A3009 RMK A01 T00170008  RH  094%=      5-min Rain = 0
KBY1 241257Z 21002KT 02/01 A3009 RMK A01 T00170006  RH  093%=      5-min Rain = 0
KBY1 241258Z 22002KT 02/00 A301 RMK A01 T00150003  RH  092%=      5-min Rain = 0
KBY1 241259Z 24002KT 01/00 A301 RMK A01 T00130001  RH  091%=      5-min Rain = 0
KBY1 241300Z 25002KT 01/00 A301 RMK A01 T00120000  RH  092%=      5-min Rain = 0
KBY1 241301Z 26002KT 01/00 A301 RMK A01 T00110001  RH  093%=      5-min Rain = 0
KBY1 241302Z 26001KT 01/00 A301 RMK A01 T00120003  RH  094%=      5-min Rain = 0
KBY1 241303Z 26001KT 01/01 A301 RMK A01 T00140006  RH  095%=      5-min Rain = 0
KBY1 241304Z 25002KT 02/01 A301 RMK A01 T00170010  RH  095%=      5-min Rain = 0
KBY1 241305Z 25001KT 02/01 A301 RMK A01 T00190013  RH  096%=      5-min Rain = 0
KBY1 241306Z 26001KT 02/01 A301 RMK A01 T00200014  RH  096%=      5-min Rain = 0
KBY1 241307Z 27001KT 02/01 A301 RMK A01 T00210014  RH  095%=      5-min Rain = 0
KBY1 241308Z 27001KT 02/01 A301 RMK A01 T00210014  RH  095%=      5-min Rain = 0
KBY1 241309Z 29002KT 02/02 A301 RMK A01 T00230015  RH  094%=      5-min Rain = 0
KBY1 241310Z 28002KT 02/02 A301 RMK A01 T00230015  RH  094%=      5-min Rain = 0
KBY1 241311Z 27003KT 03/02 A301 RMK A01 T00250017  RH  094%=      5-min Rain = 0
KBY1 241312Z 27002KT 03/02 A301 RMK A01 T00280019  RH  094%=      5-min Rain = 0
KBY1 241313Z 27002KT 03/02 A301 RMK A01 T00310020  RH  093%=      5-min Rain = 0
KBY1 241314Z 27003KT 03/02 A301 RMK A01 T00340020  RH  091%=      5-min Rain = 0
KBY1 241315Z 26002KT 04/02 A301 RMK A01 T00350019  RH  089%=      5-min Rain = 0
KBY1 241316Z 25001KT 04/02 A301 RMK A01 T00360018  RH  088%=      5-min Rain = 0
KBY1 241317Z 25000KT 03/01 A301 RMK A01 T00340014  RH  087%=      5-min Rain = 0
KBY1 241318Z 28000KT 03/01 A301 RMK A01 T00330014  RH  087%=      5-min Rain = 0
KBY1 241319Z 00000KT 03/01 A301 RMK A01 T00320014  RH  088%=      5-min Rain = 0
KBY1 241320Z 29000KT 03/02 A301 RMK A01 T00310015  RH  089%=      5-min Rain = 0
KBY1 241321Z 28001KT 03/02 A3011 RMK A01 T00310015  RH  089%=      5-min Rain = 0
KBY1 241322Z 27002KT 03/02 A3011 RMK A01 T00310016  RH  090%=      5-min Rain = 0
KBY1 241323Z 28003KT 03/02 A3011 RMK A01 T00330019  RH  090%=      5-min Rain = 0
KBY1 241324Z 26003KT 04/02 A3011 RMK A01 T00350019  RH  089%=      5-min Rain = 0
KBY1 241325Z 26003KT 04/02 A3011 RMK A01 T00370019  RH  088%=      5-min Rain = 0
KBY1 241326Z 20002KT 04/02 A3011 RMK A01 T00370019  RH  088%=      5-min Rain = 0
KBY1 241327Z 19002KT 04/02 A3011 RMK A01 T00360016  RH  087%=      5-min Rain = 0
KBY1 241328Z 20002KT 03/01 A3011 RMK A01 T00330013  RH  087%=      5-min Rain = 0
KBY1 241329Z 22002KT 03/01 A3011 RMK A01 T00310013  RH  088%=      5-min Rain = 0
KBY1 241330Z 25001KT 03/01 A3011 RMK A01 T00290013  RH  089%=      5-min Rain = 0
KBY1 241331Z 29002KT 03/01 A3011 RMK A01 T00290014  RH  090%=      5-min Rain = 0
KBY1 241332Z 30003KT 03/02 A3011 RMK A01 T00290015  RH  090%=      5-min Rain = 0
KBY1 241333Z 28003KT 03/02 A3011 RMK A01 T00300017  RH  091%=      5-min Rain = 0
KBY1 241334Z 28004KT 03/02 A3011 RMK A01 T00330019  RH  091%=      5-min Rain = 0
KBY1 241335Z 28004KT 03/02 A3011 RMK A01 T00340020  RH  090%=      5-min Rain = 0
KBY1 241336Z 28004KT 04/02 A3012 RMK A01 T00360019  RH  089%=      5-min Rain = 0
KBY1 241337Z 28003KT 04/02 A3012 RMK A01 T00370019  RH  088%=      5-min Rain = 0
KBY1 241338Z 29004KT 04/02 A3012 RMK A01 T00380018  RH  087%=      5-min Rain = 0
KBY1 241339Z 28005KT 04/02 A3012 RMK A01 T00380018  RH  087%=      5-min Rain = 0
KBY1 241340Z 29005KT 04/02 A3012 RMK A01 T00390018  RH  086%=      5-min Rain = 0
KBY1 241341Z 29005KT 04/02 A3012 RMK A01 T00390018  RH  086%=      5-min Rain = 0
KBY1 241342Z 29005KT 04/02 A3012 RMK A01 T00400018  RH  086%=      5-min Rain = 0
KBY1 241343Z 29005KT 04/02 A3012 RMK A01 T00400018  RH  086%=      5-min Rain = 0
KBY1 241344Z 29005KT 04/02 A3012 RMK A01 T00400018  RH  085%=      5-min Rain = 0
KBY1 241345Z 29005KT 04/02 A3012 RMK A01 T00410019  RH  086%=      5-min Rain = 0
KBY1 241346Z 29005KT 04/02 A3012 RMK A01 T00410019  RH  085%=      5-min Rain = 0
KBY1 241347Z 29005KT 04/02 A3012 RMK A01 T00420019  RH  085%=      5-min Rain = 0
KBY1 241348Z 29004KT 04/02 A3012 RMK A01 T00420019  RH  085%=      5-min Rain = 0
KBY1 241349Z 29005KT 04/02 A3012 RMK A01 T00420020  RH  085%=      5-min Rain = 0
KBY1 241350Z 29005KT 04/02 A3012 RMK A01 T00420020  RH  085%=      5-min Rain = 0
KBY1 241351Z 29005KT 04/02 A3012 RMK A01 T00430020  RH  085%=      5-min Rain = 0
KBY1 241352Z 30005KT 04/02 A3012 RMK A01 T00430021  RH  085%=      5-min Rain = 0
KBY1 241353Z 29005KT 04/02 A3012 RMK A01 T00440021  RH  086%=      5-min Rain = 0
KBY1 241354Z 29005KT 04/02 A3012 RMK A01 T00440021  RH  085%=      5-min Rain = 0
KBY1 241355Z 29004KT 04/02 A3012 RMK A01 T00440021  RH  085%=      5-min Rain = 0
KBY1 241356Z 29004KT 05/02 A3012 RMK A01 T00450022  RH  085%=      5-min Rain = 0
KBY1 241357Z 29004KT 05/02 A3012 RMK A01 T00450021  RH  085%=      5-min Rain = 0
KBY1 241358Z 29005KT 05/02 A3012 RMK A01 T00460023  RH  085%=      5-min Rain = 0
KBY1 241359Z 29005KT 05/02 A3012 RMK A01 T00470022  RH  084%=      5-min Rain = 0
KBY1 241400Z 29005KT 05/02 A3012 RMK A01 T00470022  RH  084%=      5-min Rain = 0
KBY1 241401Z 30004KT 05/02 A3012 RMK A01 T00470022  RH  083%=      5-min Rain = 0
KBY1 241402Z 30005KT 05/02 A3012 RMK A01 T00480022  RH  083%=      5-min Rain = 0
KBY1 241403Z 29004KT 05/02 A3012 RMK A01 T00490024  RH  084%=      5-min Rain = 0
KBY1 241404Z 30004KT 05/03 A3012 RMK A01 T00510025  RH  084%=      5-min Rain = 0
KBY1 241405Z 30004KT 05/03 A3012 RMK A01 T00520027  RH  084%=      5-min Rain = 0
KBY1 241406Z 30004KT 05/03 A3012 RMK A01 T00530027  RH  083%=      5-min Rain = 0
KBY1 241407Z 29004KT 05/03 A3012 RMK A01 T00540025  RH  082%=      5-min Rain = 0
KBY1 241408Z 29004KT 06/03 A3012 RMK A01 T00550027  RH  082%=      5-min Rain = 0
KBY1 241409Z 29004KT 06/03 A3012 RMK A01 T00550025  RH  081%=      5-min Rain = 0
KBY1 241410Z 29004KT 06/03 A3012 RMK A01 T00550025  RH  081%=      5-min Rain = 0
KBY1 241411Z 30004KT 06/03 A3012 RMK A01 T00550026  RH  081%=      5-min Rain = 0
KBY1 241412Z 28004KT 06/03 A3012 RMK A01 T00560025  RH  080%=      5-min Rain = 0
KBY1 241413Z 28004KT 06/03 A3012 RMK A01 T00560025  RH  080%=      5-min Rain = 0
KBY1 241414Z 29003KT 06/03 A3012 RMK A01 T00560025  RH  080%=      5-min Rain = 0
KBY1 241415Z 29004KT 06/03 A3013 RMK A01 T00560026  RH  081%=      5-min Rain = 0
KBY1 241416Z 29003KT 06/03 A3013 RMK A01 T00570026  RH  080%=      5-min Rain = 0
KBY1 241417Z 29003KT 06/03 A3013 RMK A01 T00570027  RH  081%=      5-min Rain = 0
KBY1 241418Z 29003KT 06/03 A3013 RMK A01 T00580027  RH  081%=      5-min Rain = 0
KBY1 241419Z 29004KT 06/03 A3013 RMK A01 T00570026  RH  080%=      5-min Rain = 0
KBY1 241420Z 29005KT 06/02 A3013 RMK A01 T00570024  RH  079%=      5-min Rain = 0
KBY1 241421Z 29005KT 06/02 A3013 RMK A01 T00570024  RH  079%=      5-min Rain = 0
KBY1 241422Z 29005KT 06/02 A3013 RMK A01 T00570024  RH  080%=      5-min Rain = 0
KBY1 241423Z 29005KT 06/03 A3013 RMK A01 T00570025  RH  080%=      5-min Rain = 0
KBY1 241424Z 29005KT 06/02 A3013 RMK A01 T00570024  RH  080%=      5-min Rain = 0
KBY1 241425Z 29005KT 06/02 A3013 RMK A01 T00570024  RH  079%=      5-min Rain = 0
KBY1 241426Z 30005KT 06/02 A3012 RMK A01 T00570023  RH  079%=      5-min Rain = 0
KBY1 241427Z 30005KT 06/02 A3012 RMK A01 T00570024  RH  079%=      5-min Rain = 0
KBY1 241428Z 31005KT 06/03 A3012 RMK A01 T00580026  RH  080%=      5-min Rain = 0
KBY1 241429Z 30005KT 06/03 A3012 RMK A01 T00580026  RH  080%=      5-min Rain = 0
KBY1 241430Z 29005KT 06/02 A3012 RMK A01 T00590024  RH  079%=      5-min Rain = 0
KBY1 241431Z 29005KT 06/03 A3012 RMK A01 T00590025  RH  079%=      5-min Rain = 0
KBY1 241432Z 28004KT 06/03 A3012 RMK A01 T00600027  RH  079%=      5-min Rain = 0
KBY1 241433Z 27004KT 06/03 A3012 RMK A01 T00620028  RH  079%=      5-min Rain = 0
KBY1 241434Z 27005KT 06/03 A3012 RMK A01 T00630028  RH  078%=      5-min Rain = 0
KBY1 241435Z 27006KT 06/03 A3012 RMK A01 T00630027  RH  077%=      5-min Rain = 0
KBY1 241436Z 28005KT 06/03 A3012 RMK A01 T00630025  RH  077%=      5-min Rain = 0
KBY1 241437Z 28004KT 06/03 A3012 RMK A01 T00620025  RH  077%=      5-min Rain = 0
KBY1 241438Z 29005KT 06/03 A3012 RMK A01 T00620025  RH  077%=      5-min Rain = 0
KBY1 241439Z 28004KT 06/02 A3012 RMK A01 T00620024  RH  077%=      5-min Rain = 0
KBY1 241440Z 29005KT 06/03 A3012 RMK A01 T00610025  RH  077%=      5-min Rain = 0
KBY1 241441Z 30006KT 06/03 A3012 RMK A01 T00610025  RH  078%=      5-min Rain = 0
KBY1 241442Z 29004KT 06/03 A3012 RMK A01 T00610025  RH  077%=      5-min Rain = 0
KBY1 241443Z 29006KT 06/03 A3012 RMK A01 T00610026  RH  078%=      5-min Rain = 0
KBY1 241444Z 30006KT 06/03 A3012 RMK A01 T00610026  RH  078%=      5-min Rain = 0
KBY1 241445Z 30006KT 06/03 A3012 RMK A01 T00610025  RH  078%=      5-min Rain = 0
KBY1 241446Z 29007KT 06/03 A3013 RMK A01 T00610025  RH  077%=      5-min Rain = 0
KBY1 241447Z 29006KT 06/03 A3013 RMK A01 T00610025  RH  077%=      5-min Rain = 0
KBY1 241448Z 29005KT 06/03 A3013 RMK A01 T00620026  RH  078%=      5-min Rain = 0
KBY1 241449Z 28005KT 06/03 A3013 RMK A01 T00630028  RH  078%=      5-min Rain = 0
KBY1 241450Z 27005KT 06/03 A3013 RMK A01 T00630028  RH  078%=      5-min Rain = 0
KBY1 241451Z 27005KT 06/03 A3013 RMK A01 T00640027  RH  077%=      5-min Rain = 0
KBY1 241452Z 27005KT 07/03 A3013 RMK A01 T00650027  RH  077%=      5-min Rain = 0
KBY1 241453Z 27005KT 07/03 A3013 RMK A01 T00650027  RH  077%=      5-min Rain = 0
KBY1 241454Z 27004KT 07/03 A3013 RMK A01 T00650026  RH  076%=      5-min Rain = 0
KBY1 241455Z 27004KT 06/03 A3013 RMK A01 T00640026  RH  077%=      5-min Rain = 0
KBY1 241456Z 26005KT 06/03 A3013 RMK A01 T00640027  RH  077%=      5-min Rain = 0
KBY1 241457Z 26005KT 07/03 A3013 RMK A01 T00650027  RH  077%=      5-min Rain = 0
KBY1 241458Z 26005KT 07/03 A3013 RMK A01 T00650027  RH  076%=      5-min Rain = 0
KBY1 241459Z 27005KT 07/03 A3013 RMK A01 T00650026  RH  076%=      5-min Rain = 0
KBY1 241500Z 28005KT 06/03 A3013 RMK A01 T00640025  RH  076%=      5-min Rain = 0
KBY1 241501Z 28005KT 07/03 A3013 RMK A01 T00650026  RH  076%=      5-min Rain = 0
KBY1 241502Z 27005KT 07/03 A3013 RMK A01 T00650025  RH  076%=      5-min Rain = 0
KBY1 241503Z 27006KT 07/03 A3013 RMK A01 T00660025  RH  076%=      5-min Rain = 0
KBY1 241504Z 27005KT 07/03 A3013 RMK A01 T00660026  RH  076%=      5-min Rain = 0
KBY1 241505Z 26005KT 07/03 A3012 RMK A01 T00670027  RH  076%=      5-min Rain = 0
KBY1 241506Z 27004KT 07/03 A3012 RMK A01 T00680029  RH  076%=      5-min Rain = 0
KBY1 241507Z 28004KT 07/03 A3012 RMK A01 T00700030  RH  076%=      5-min Rain = 0
KBY1 241508Z 27006KT 07/03 A3012 RMK A01 T00720028  RH  074%=      5-min Rain = 0
KBY1 241509Z 27006KT 07/03 A3012 RMK A01 T00720026  RH  072%=      5-min Rain = 0
KBY1 241510Z 27005KT 07/03 A3012 RMK A01 T00710026  RH  073%=      5-min Rain = 0
KBY1 241511Z 27005KT 07/03 A3012 RMK A01 T00710027  RH  074%=      5-min Rain = 0
KBY1 241512Z 26004KT 07/03 A3012 RMK A01 T00720028  RH  074%=      5-min Rain = 0
KBY1 241513Z 26005KT 07/03 A3012 RMK A01 T00720026  RH  073%=      5-min Rain = 0
KBY1 241514Z 26005KT 07/03 A3013 RMK A01 T00710026  RH  073%=      5-min Rain = 0
KBY1 241515Z 27006KT 07/03 A3013 RMK A01 T00710027  RH  073%=      5-min Rain = 0
KBY1 241516Z 26005KT 07/03 A3013 RMK A01 T00710025  RH  073%=      5-min Rain = 0
KBY1 241517Z 26005KT 07/03 A3013 RMK A01 T00710026  RH  073%=      5-min Rain = 0
KBY1 241518Z 26005KT 07/03 A3013 RMK A01 T00710026  RH  073%=      5-min Rain = 0
KBY1 241519Z 27005KT 07/03 A3013 RMK A01 T00720027  RH  073%=      5-min Rain = 0
KBY1 241520Z 26004KT 07/03 A3013 RMK A01 T00730028  RH  073%=      5-min Rain = 0
KBY1 241521Z 25005KT 07/03 A3013 RMK A01 T00740028  RH  073%=      5-min Rain = 0
KBY1 241522Z 26005KT 08/03 A3013 RMK A01 T00750030  RH  073%=      5-min Rain = 0
KBY1 241523Z 27005KT 08/03 A3013 RMK A01 T00760029  RH  072%=      5-min Rain = 0
KBY1 241524Z 27005KT 08/03 A3013 RMK A01 T00760028  RH  072%=      5-min Rain = 0
KBY1 241525Z 25005KT 08/03 A3013 RMK A01 T00760028  RH  072%=      5-min Rain = 0
KBY1 241526Z 25006KT 08/03 A3013 RMK A01 T00760028  RH  072%=      5-min Rain = 0
KBY1 241527Z 25006KT 08/03 A3013 RMK A01 T00760029  RH  072%=      5-min Rain = 0
KBY1 241528Z 25006KT 08/03 A3013 RMK A01 T00770030  RH  072%=      5-min Rain = 0
KBY1 241529Z 25006KT 08/03 A3012 RMK A01 T00770031  RH  072%=      5-min Rain = 0
KBY1 241530Z 24005KT 08/03 A3013 RMK A01 T00780032  RH  072%=      5-min Rain = 0
KBY1 241531Z 24006KT 08/03 A3013 RMK A01 T00780029  RH  071%=      5-min Rain = 0
KBY1 241532Z 26005KT 08/03 A3013 RMK A01 T00780029  RH  071%=      5-min Rain = 0
KBY1 241533Z 27006KT 08/03 A3013 RMK A01 T00780028  RH  070%=      5-min Rain = 0
KBY1 241534Z 28005KT 08/03 A3013 RMK A01 T00780027  RH  070%=      5-min Rain = 0
KBY1 241535Z 27004KT 08/03 A3013 RMK A01 T00780027  RH  070%=      5-min Rain = 0
KBY1 241536Z 27004KT 08/03 A3013 RMK A01 T00790030  RH  071%=      5-min Rain = 0
KBY1 241537Z 24005KT 08/03 A3013 RMK A01 T00800029  RH  070%=      5-min Rain = 0
KBY1 241538Z 24004KT 08/03 A3013 RMK A01 T00810029  RH  070%=      5-min Rain = 0
KBY1 241539Z 24005KT 08/03 A3013 RMK A01 T00810029  RH  070%=      5-min Rain = 0
KBY1 241540Z 24004KT 08/03 A3013 RMK A01 T00820028  RH  069%=      5-min Rain = 0
KBY1 241541Z 23005KT 08/03 A3013 RMK A01 T00830029  RH  069%=      5-min Rain = 0
KBY1 241542Z 24006KT 09/03 A3013 RMK A01 T00850029  RH  068%=      5-min Rain = 0
KBY1 241543Z 27005KT 08/03 A3013 RMK A01 T00840028  RH  068%=      5-min Rain = 0
KBY1 241544Z 27004KT 08/03 A3013 RMK A01 T00840029  RH  068%=      5-min Rain = 0
KBY1 241545Z 27004KT 09/03 A3013 RMK A01 T00850028  RH  068%=      5-min Rain = 0
KBY1 241546Z 26004KT 09/03 A3013 RMK A01 T00850028  RH  067%=      5-min Rain = 0
KBY1 241547Z 24005KT 09/03 A3013 RMK A01 T00860030  RH  068%=      5-min Rain = 0
KBY1 241548Z 25004KT 09/03 A3013 RMK A01 T00860029  RH  067%=      5-min Rain = 0
KBY1 241549Z 25004KT 09/03 A3013 RMK A01 T00870029  RH  067%=      5-min Rain = 0
KBY1 241550Z 26004KT 09/03 A3013 RMK A01 T00870029  RH  067%=      5-min Rain = 0
KBY1 241551Z 26005KT 09/03 A3013 RMK A01 T00880029  RH  067%=      5-min Rain = 0
KBY1 241552Z 25005KT 09/03 A3013 RMK A01 T00880027  RH  066%=      5-min Rain = 0
KBY1 241553Z 26005KT 09/03 A3013 RMK A01 T00860027  RH  066%=      5-min Rain = 0
KBY1 241554Z 27003KT 09/03 A3013 RMK A01 T00860027  RH  066%=      5-min Rain = 0
KBY1 241555Z 27004KT 09/03 A3013 RMK A01 T00880031  RH  068%=      5-min Rain = 0
KBY1 241556Z 24003KT 09/03 A3013 RMK A01 T00920033  RH  067%=      5-min Rain = 0
KBY1 241557Z 25004KT 10/04 A3013 RMK A01 T00960038  RH  067%=      5-min Rain = 0
KBY1 241558Z 23005KT 10/03 A3013 RMK A01 T00990033  RH  063%=      5-min Rain = 0
KBY1 241559Z 25005KT 10/03 A3013 RMK A01 T00980033  RH  064%=      5-min Rain = 0
KBY1 241600Z 24005KT 10/03 A3013 RMK A01 T00980032  RH  064%=      5-min Rain = 0
KBY1 241601Z 23006KT 10/04 A3013 RMK A01 T01000035  RH  064%=      5-min Rain = 0
KBY1 241602Z 22005KT 10/03 A3013 RMK A01 T00990029  RH  062%=      5-min Rain = 0
KBY1 241603Z 22005KT 10/03 A3013 RMK A01 T00970033  RH  064%=      5-min Rain = 0
KBY1 241604Z 22004KT 10/04 A3013 RMK A01 T01010037  RH  064%=      5-min Rain = 0
KBY1 241605Z 25004KT 10/03 A3013 RMK A01 T01020030  RH  061%=      5-min Rain = 0
KBY1 241606Z 29003KT 10/03 A3013 RMK A01 T01000029  RH  061%=      5-min Rain = 0
KBY1 241607Z 26004KT 10/04 A3013 RMK A01 T01010035  RH  063%=      5-min Rain = 0
KBY1 241608Z 24005KT 11/04 A3013 RMK A01 T01080042  RH  064%=      5-min Rain = 0
KBY1 241609Z 25006KT 11/03 A3013 RMK A01 T01090034  RH  059%=      5-min Rain = 0
KBY1 241610Z 26005KT 11/03 A3013 RMK A01 T01070033  RH  060%=      5-min Rain = 0
KBY1 241611Z 26006KT 11/04 A3013 RMK A01 T01070036  RH  062%=      5-min Rain = 0
KBY1 241612Z 26005KT 11/04 A3013 RMK A01 T01090035  RH  060%=      5-min Rain = 0
KBY1 241613Z 26004KT 11/03 A3013 RMK A01 T01090031  RH  059%=      5-min Rain = 0
KBY1 241614Z 23001KT 11/03 A3013 RMK A01 T01050027  RH  058%=      5-min Rain = 0
KBY1 241615Z 23003KT 10/03 A3013 RMK A01 T01040030  RH  060%=      5-min Rain = 0
KBY1 241616Z 24005KT 10/03 A3013 RMK A01 T01030030  RH  060%=      5-min Rain = 0
KBY1 241617Z 24004KT 10/03 A3013 RMK A01 T01030033  RH  062%=      5-min Rain = 0
KBY1 241618Z 24003KT 10/03 A3013 RMK A01 T01040032  RH  061%=      5-min Rain = 0
KBY1 241619Z 25003KT 10/03 A3013 RMK A01 T01040031  RH  060%=      5-min Rain = 0
KBY1 241620Z 23004KT 10/03 A3013 RMK A01 T01040032  RH  061%=      5-min Rain = 0
KBY1 241621Z 23005KT 11/03 A3013 RMK A01 T01050033  RH  061%=      5-min Rain = 0
KBY1 241622Z 24005KT 11/03 A3013 RMK A01 T01060033  RH  061%=      5-min Rain = 0
KBY1 241623Z 24005KT 11/03 A3013 RMK A01 T01060033  RH  061%=      5-min Rain = 0
KBY1 241624Z 25003KT 11/03 A3013 RMK A01 T01050033  RH  061%=      5-min Rain = 0
KBY1 241625Z 26004KT 11/03 A3013 RMK A01 T01060033  RH  061%=      5-min Rain = 0
KBY1 241626Z 26005KT 11/03 A3013 RMK A01 T01060031  RH  060%=      5-min Rain = 0
KBY1 241627Z 31003KT 11/03 A3013 RMK A01 T01060032  RH  060%=      5-min Rain = 0
KBY1 241628Z 30004KT 11/03 A3013 RMK A01 T01070030  RH  059%=      5-min Rain = 0
KBY1 241629Z 26003KT 11/03 A3013 RMK A01 T01080032  RH  059%=      5-min Rain = 0
KBY1 241630Z 26002KT 11/04 A3013 RMK A01 T01110037  RH  060%=      5-min Rain = 0
KBY1 241631Z 30002KT 11/03 A3013 RMK A01 T01130034  RH  058%=      5-min Rain = 0
KBY1 241632Z 27003KT 11/03 A3013 RMK A01 T01140032  RH  057%=      5-min Rain = 0
KBY1 241633Z 24002KT 11/03 A3013 RMK A01 T01140032  RH  057%=      5-min Rain = 0
KBY1 241634Z 25005KT 12/03 A3013 RMK A01 T01150032  RH  057%=      5-min Rain = 0
KBY1 241635Z 25003KT 11/03 A3013 RMK A01 T01140028  RH  055%=      5-min Rain = 0
KBY1 241636Z 23001KT 11/03 A3013 RMK A01 T01120028  RH  056%=      5-min Rain = 0
KBY1 241637Z 23002KT 11/03 A3013 RMK A01 T01120032  RH  058%=      5-min Rain = 0
KBY1 241638Z 24005KT 11/03 A3013 RMK A01 T01140032  RH  057%=      5-min Rain = 0
KBY1 241639Z 22004KT 11/03 A3013 RMK A01 T01120028  RH  056%=      5-min Rain = 0
KBY1 241640Z 21004KT 11/03 A3013 RMK A01 T01110031  RH  057%=      5-min Rain = 0
KBY1 241641Z 21002KT 11/03 A3013 RMK A01 T01130031  RH  057%=      5-min Rain = 0
KBY1 241642Z 18003KT 12/03 A3013 RMK A01 T01150034  RH  057%=      5-min Rain = 0
KBY1 241643Z 18003KT 12/04 A3013 RMK A01 T01180036  RH  057%=      5-min Rain = 0
KBY1 241644Z 15002KT 12/03 A3013 RMK A01 T01200030  RH  054%=      5-min Rain = 0
KBY1 241645Z 21002KT 12/03 A3013 RMK A01 T01200033  RH  055%=      5-min Rain = 0
KBY1 241646Z 23004KT 12/04 A3013 RMK A01 T01220036  RH  056%=      5-min Rain = 0
KBY1 241647Z 22001KT 12/03 A3013 RMK A01 T01220032  RH  054%=      5-min Rain = 0
KBY1 241648Z 23003KT 12/03 A3013 RMK A01 T01220032  RH  054%=      5-min Rain = 0
KBY1 241649Z 21003KT 12/03 A3013 RMK A01 T01200032  RH  055%=      5-min Rain = 0
KBY1 241650Z 20003KT 12/04 A3013 RMK A01 T01210036  RH  056%=      5-min Rain = 0
KBY1 241651Z 19003KT 12/04 A3013 RMK A01 T01240038  RH  056%=      5-min Rain = 0
KBY1 241652Z 19003KT 13/04 A3013 RMK A01 T01250035  RH  054%=      5-min Rain = 0
KBY1 241653Z 22003KT 12/04 A3013 RMK A01 T01240035  RH  054%=      5-min Rain = 0
KBY1 241654Z 23002KT 12/03 A3013 RMK A01 T01230031  RH  053%=      5-min Rain = 0
KBY1 241655Z 21001KT 12/03 A3013 RMK A01 T01210034  RH  055%=      5-min Rain = 0
KBY1 241656Z 18002KT 12/03 A3013 RMK A01 T01210031  RH  054%=      5-min Rain = 0
KBY1 241657Z 18003KT 12/03 A3013 RMK A01 T01210028  RH  053%=      5-min Rain = 0
KBY1 241658Z 22003KT 12/03 A3013 RMK A01 T01200030  RH  054%=      5-min Rain = 0
KBY1 241659Z 22003KT 12/03 A3013 RMK A01 T01190028  RH  054%=      5-min Rain = 0
KBY1 241700Z 20002KT 12/03 A3013 RMK A01 T01180027  RH  054%=      5-min Rain = 0
KBY1 241701Z 16002KT 12/03 A3013 RMK A01 T01170028  RH  054%=      5-min Rain = 0
KBY1 241702Z 21002KT 12/03 A3013 RMK A01 T01180029  RH  054%=      5-min Rain = 0
KBY1 241703Z 21003KT 12/03 A3013 RMK A01 T01190028  RH  054%=      5-min Rain = 0
KBY1 241704Z 20002KT 12/03 A3013 RMK A01 T01190029  RH  054%=      5-min Rain = 0
KBY1 241705Z 19001KT 12/03 A3013 RMK A01 T01200034  RH  056%=      5-min Rain = 0
KBY1 241706Z 18002KT 12/03 A3013 RMK A01 T01230032  RH  054%=      5-min Rain = 0
KBY1 241707Z 18002KT 12/03 A3013 RMK A01 T01240031  RH  053%=      5-min Rain = 0
KBY1 241708Z 22002KT 12/03 A3013 RMK A01 T01240033  RH  054%=      5-min Rain = 0
KBY1 241709Z 26002KT 13/03 A3013 RMK A01 T01250030  RH  052%=      5-min Rain = 0
KBY1 241710Z 26003KT 13/03 A3013 RMK A01 T01260034  RH  053%=      5-min Rain = 0
KBY1 241711Z 29003KT 13/03 A3013 RMK A01 T01280034  RH  053%=      5-min Rain = 0
KBY1 241712Z 31003KT 13/03 A3013 RMK A01 T01280030  RH  051%=      5-min Rain = 0
KBY1 241713Z 30002KT 13/03 A3013 RMK A01 T01280032  RH  052%=      5-min Rain = 0
KBY1 241714Z 32002KT 13/03 A3013 RMK A01 T01290031  RH  051%=      5-min Rain = 0
KBY1 241715Z 24003KT 13/03 A3013 RMK A01 T01280030  RH  051%=      5-min Rain = 0
KBY1 241716Z 24002KT 13/03 A3013 RMK A01 T01280033  RH  052%=      5-min Rain = 0
KBY1 241717Z 26001KT 13/03 A3013 RMK A01 T01280029  RH  051%=      5-min Rain = 0
KBY1 241718Z 31001KT 13/03 A3013 RMK A01 T01280030  RH  051%=      5-min Rain = 0
KBY1 241719Z 01001KT 13/03 A3013 RMK A01 T01280031  RH  052%=      5-min Rain = 0
KBY1 241720Z 33002KT 13/03 A3013 RMK A01 T01280028  RH  051%=      5-min Rain = 0
KBY1 241721Z 31002KT 13/03 A3013 RMK A01 T01280029  RH  051%=      5-min Rain = 0
KBY1 241722Z 30001KT 13/03 A3013 RMK A01 T01290029  RH  051%=      5-min Rain = 0
KBY1 241723Z 27003KT 13/03 A3013 RMK A01 T01290028  RH  050%=      5-min Rain = 0
KBY1 241724Z 23002KT 13/03 A3013 RMK A01 T01280027  RH  050%=      5-min Rain = 0
KBY1 241725Z 26003KT 13/03 A3013 RMK A01 T01270029  RH  051%=      5-min Rain = 0
KBY1 241726Z 32003KT 13/03 A3013 RMK A01 T01270032  RH  052%=      5-min Rain = 0
KBY1 241727Z 30003KT 13/03 A3013 RMK A01 T01290032  RH  052%=      5-min Rain = 0
KBY1 241728Z 33002KT 13/03 A3013 RMK A01 T01290029  RH  050%=      5-min Rain = 0
KBY1 241729Z 32000KT 13/03 A3013 RMK A01 T01290029  RH  050%=      5-min Rain = 0
KBY1 241730Z 11000KT 13/03 A3013 RMK A01 T01290029  RH  051%=      5-min Rain = 0
KBY1 241731Z 05001KT 13/03 A3013 RMK A01 T01300027  RH  050%=      5-min Rain = 0
KBY1 241732Z 04001KT 13/03 A3013 RMK A01 T01300032  RH  051%=      5-min Rain = 0
KBY1 241733Z 35001KT 13/03 A3013 RMK A01 T01310029  RH  050%=      5-min Rain = 0
KBY1 241734Z 33000KT 13/03 A3013 RMK A01 T01320033  RH  051%=      5-min Rain = 0
KBY1 241735Z 33001KT 13/03 A3013 RMK A01 T01340032  RH  050%=      5-min Rain = 0
KBY1 241736Z 29001KT 13/03 A3013 RMK A01 T01340032  RH  050%=      5-min Rain = 0
KBY1 241737Z 23003KT 14/03 A3013 RMK A01 T01350032  RH  050%=      5-min Rain = 0
KBY1 241738Z 25002KT 14/03 A3013 RMK A01 T01360030  RH  049%=      5-min Rain = 0
KBY1 241739Z 24004KT 13/03 A3013 RMK A01 T01340031  RH  050%=      5-min Rain = 0
KBY1 241740Z 25002KT 13/03 A3013 RMK A01 T01330029  RH  049%=      5-min Rain = 0
KBY1 241741Z 25002KT 13/03 A3013 RMK A01 T01310026  RH  049%=      5-min Rain = 0
KBY1 241742Z 24003KT 13/03 A3013 RMK A01 T01300028  RH  050%=      5-min Rain = 0
KBY1 241743Z 24001KT 13/03 A3013 RMK A01 T01300028  RH  050%=      5-min Rain = 0
KBY1 241744Z 25002KT 13/03 A3013 RMK A01 T01300028  RH  050%=      5-min Rain = 0
KBY1 241745Z 20002KT 13/03 A3013 RMK A01 T01300032  RH  052%=      5-min Rain = 0
KBY1 241746Z 19003KT 13/03 A3013 RMK A01 T01310032  RH  051%=      5-min Rain = 0
KBY1 241747Z 18003KT 13/03 A3013 RMK A01 T01310030  RH  050%=      5-min Rain = 0
KBY1 241748Z 17004KT 13/03 A3012 RMK A01 T01310029  RH  050%=      5-min Rain = 0
KBY1 241749Z 14003KT 13/03 A3012 RMK A01 T01310030  RH  050%=      5-min Rain = 0
KBY1 241750Z 10003KT 13/03 A3013 RMK A01 T01300028  RH  050%=      5-min Rain = 0
KBY1 241751Z 12002KT 13/03 A3013 RMK A01 T01300028  RH  050%=      5-min Rain = 0
KBY1 241752Z 11002KT 13/03 A3013 RMK A01 T01300030  RH  051%=      5-min Rain = 0
KBY1 241753Z 16001KT 13/04 A3013 RMK A01 T01320036  RH  052%=      5-min Rain = 0
KBY1 241754Z 20003KT 14/03 A3013 RMK A01 T01350034  RH  050%=      5-min Rain = 0
KBY1 241755Z 20003KT 14/03 A3013 RMK A01 T01360031  RH  049%=      5-min Rain = 0
KBY1 241756Z 20002KT 14/03 A3013 RMK A01 T01350026  RH  048%=      5-min Rain = 0
KBY1 241757Z 19001KT 13/03 A3013 RMK A01 T01330028  RH  049%=      5-min Rain = 0
KBY1 241758Z 17003KT 13/03 A3012 RMK A01 T01330032  RH  050%=      5-min Rain = 0
KBY1 241759Z 21002KT 13/03 A3012 RMK A01 T01340030  RH  049%=      5-min Rain = 0
KBY1 241800Z 22001KT 13/03 A3012 RMK A01 T01340028  RH  049%=      5-min Rain = 0
KBY1 241801Z 21002KT 13/03 A3012 RMK A01 T01340027  RH  048%=      5-min Rain = 0
KBY1 241802Z 26000KT 13/03 A3012 RMK A01 T01330026  RH  048%=      5-min Rain = 0
KBY1 241803Z 18001KT 13/03 A3012 RMK A01 T01320026  RH  049%=      5-min Rain = 0
KBY1 241804Z 19001KT 13/03 A3012 RMK A01 T01320030  RH  050%=      5-min Rain = 0
KBY1 241805Z 17002KT 13/03 A3012 RMK A01 T01330029  RH  049%=      5-min Rain = 0
KBY1 241806Z 19003KT 13/03 A3012 RMK A01 T01330028  RH  049%=      5-min Rain = 0
KBY1 241807Z 19003KT 13/03 A3012 RMK A01 T01320027  RH  049%=      5-min Rain = 0
KBY1 241808Z 19003KT 13/03 A3012 RMK A01 T01320030  RH  050%=      5-min Rain = 0
KBY1 241809Z 20003KT 13/03 A3012 RMK A01 T01320029  RH  050%=      5-min Rain = 0
KBY1 241810Z 20003KT 13/03 A3012 RMK A01 T01310029  RH  050%=      5-min Rain = 0
KBY1 241811Z 19004KT 13/03 A3012 RMK A01 T01320028  RH  050%=      5-min Rain = 0
KBY1 241812Z 23002KT 13/03 A3012 RMK A01 T01320028  RH  050%=      5-min Rain = 0
KBY1 241813Z 21002KT 13/03 A3012 RMK A01 T01330029  RH  049%=      5-min Rain = 0
KBY1 241814Z 22001KT 13/03 A3012 RMK A01 T01330027  RH  048%=      5-min Rain = 0
KBY1 241815Z 02001KT 13/03 A3012 RMK A01 T01340029  RH  049%=      5-min Rain = 0
KBY1 241816Z 12001KT 14/03 A3012 RMK A01 T01360033  RH  050%=      5-min Rain = 0
KBY1 241817Z 18001KT 14/03 A3012 RMK A01 T01380031  RH  048%=      5-min Rain = 0
KBY1 241818Z 21002KT 14/03 A3012 RMK A01 T01380032  RH  049%=      5-min Rain = 0
KBY1 241819Z 21001KT 14/03 A3012 RMK A01 T01390034  RH  049%=      5-min Rain = 0
KBY1 241820Z 32001KT 14/03 A3012 RMK A01 T01390031  RH  048%=      5-min Rain = 0
KBY1 241821Z 04003KT 14/03 A3012 RMK A01 T01400033  RH  049%=      5-min Rain = 0
KBY1 241822Z 06002KT 14/03 A3012 RMK A01 T01400033  RH  049%=      5-min Rain = 0
KBY1 241823Z 09002KT 14/03 A3012 RMK A01 T01410032  RH  048%=      5-min Rain = 0
KBY1 241824Z 17001KT 14/04 A3011 RMK A01 T01420035  RH  049%=      5-min Rain = 0
KBY1 241825Z 18001KT 14/03 A3011 RMK A01 T01440034  RH  048%=      5-min Rain = 0
KBY1 241826Z 16002KT 15/03 A3011 RMK A01 T01460033  RH  047%=      5-min Rain = 0
KBY1 241827Z 14004KT 15/03 A3011 RMK A01 T01470034  RH  047%=      5-min Rain = 0
KBY1 241828Z 16004KT 15/03 A3011 RMK A01 T01450034  RH  047%=      5-min Rain = 0
KBY1 241829Z 15006KT 14/04 A3011 RMK A01 T01440038  RH  049%=      5-min Rain = 0
KBY1 241830Z 14004KT 14/03 A3011 RMK A01 T01430034  RH  048%=      5-min Rain = 0
KBY1 241831Z 15002KT 14/03 A3011 RMK A01 T01420034  RH  048%=      5-min Rain = 0
KBY1 241832Z 16001KT 14/03 A3011 RMK A01 T01430034  RH  048%=      5-min Rain = 0
KBY1 241833Z 18002KT 14/03 A3011 RMK A01 T01440033  RH  047%=      5-min Rain = 0
KBY1 241834Z 18000KT 15/03 A3011 RMK A01 T01450031  RH  046%=      5-min Rain = 0
KBY1 241835Z 18001KT 15/03 A3011 RMK A01 T01450033  RH  047%=      5-min Rain = 0
KBY1 241836Z 18001KT 15/03 A3011 RMK A01 T01450029  RH  046%=      5-min Rain = 0
KBY1 241837Z 22002KT 14/03 A3011 RMK A01 T01440030  RH  046%=      5-min Rain = 0
KBY1 241838Z 22001KT 14/03 A3011 RMK A01 T01440031  RH  046%=      5-min Rain = 0
KBY1 241839Z 23001KT 15/03 A3011 RMK A01 T01450032  RH  046%=      5-min Rain = 0
KBY1 241840Z 24001KT 15/03 A3011 RMK A01 T01470033  RH  046%=      5-min Rain = 0
KBY1 241841Z 28001KT 15/03 A3011 RMK A01 T01480034  RH  047%=      5-min Rain = 0
KBY1 241842Z 20000KT 15/04 A3011 RMK A01 T01490036  RH  047%=      5-min Rain = 0
KBY1 241843Z 22001KT 15/03 A3011 RMK A01 T01510032  RH  045%=      5-min Rain = 0
KBY1 241844Z 18003KT 15/04 A3011 RMK A01 T01520035  RH  045%=      5-min Rain = 0
KBY1 241845Z 18002KT 15/03 A3011 RMK A01 T01520034  RH  045%=      5-min Rain = 0
KBY1 241846Z 18002KT 15/03 A3011 RMK A01 T01510033  RH  045%=      5-min Rain = 0
KBY1 241847Z 14000KT 15/03 A3011 RMK A01 T01510032  RH  045%=      5-min Rain = 0
KBY1 241848Z 19001KT 15/04 A3011 RMK A01 T01520035  RH  046%=      5-min Rain = 0
KBY1 241849Z 13004KT 15/04 A3011 RMK A01 T01530039  RH  046%=      5-min Rain = 0
KBY1 241850Z 16002KT 15/04 A3011 RMK A01 T01530036  RH  045%=      5-min Rain = 0
KBY1 241851Z 17004KT 15/04 A3011 RMK A01 T01540040  RH  047%=      5-min Rain = 0
KBY1 241852Z 17003KT 15/03 A3011 RMK A01 T01530033  RH  044%=      5-min Rain = 0
KBY1 241853Z 15005KT 15/03 A3011 RMK A01 T01500033  RH  045%=      5-min Rain = 0
KBY1 241854Z 18004KT 15/03 A3011 RMK A01 T01480033  RH  046%=      5-min Rain = 0
KBY1 241855Z 16006G11KT 15/03 A3011 RMK A01 T01460031  RH  046%=      5-min Rain = 0
KBY1 241856Z 12006KT 15/04 A3011 RMK A01 T01460035  RH  047%=      5-min Rain = 0
KBY1 241857Z 13005KT 15/04 A3011 RMK A01 T01470035  RH  047%=      5-min Rain = 0
KBY1 241858Z 13003KT 15/03 A301 RMK A01 T01470032  RH  046%=      5-min Rain = 0
KBY1 241859Z 14004KT 15/03 A301 RMK A01 T01460029  RH  045%=      5-min Rain = 0
KBY1 241900Z 14004KT 15/03 A301 RMK A01 T01460029  RH  045%=      5-min Rain = 0
KBY1 241901Z 14004KT 15/03 A301 RMK A01 T01450030  RH  046%=      5-min Rain = 0
KBY1 241902Z 13005KT 15/03 A301 RMK A01 T01450033  RH  047%=      5-min Rain = 0
KBY1 241903Z 12005KT 15/03 A301 RMK A01 T01460030  RH  046%=      5-min Rain = 0
KBY1 241904Z 15003KT 14/03 A301 RMK A01 T01440028  RH  046%=      5-min Rain = 0
KBY1 241905Z 16003KT 14/03 A301 RMK A01 T01440032  RH  047%=      5-min Rain = 0
KBY1 241906Z 14004KT 15/03 A301 RMK A01 T01460034  RH  047%=      5-min Rain = 0
KBY1 241907Z 12003KT 15/03 A301 RMK A01 T01480034  RH  046%=      5-min Rain = 0
KBY1 241908Z 09002KT 15/03 A301 RMK A01 T01480030  RH  045%=      5-min Rain = 0
KBY1 241909Z 03002KT 15/03 A301 RMK A01 T01480030  RH  045%=      5-min Rain = 0
KBY1 241910Z 07002KT 15/03 A301 RMK A01 T01470028  RH  045%=      5-min Rain = 0
KBY1 241911Z 08002KT 15/03 A301 RMK A01 T01460030  RH  046%=      5-min Rain = 0
KBY1 241912Z 14002KT 15/03 A301 RMK A01 T01470032  RH  046%=      5-min Rain = 0
KBY1 241913Z 14004KT 15/03 A301 RMK A01 T01480032  RH  046%=      5-min Rain = 0
KBY1 241914Z 11004KT 15/03 A301 RMK A01 T01490031  RH  045%=      5-min Rain = 0
KBY1 241915Z 12005KT 15/03 A301 RMK A01 T01490029  RH  045%=      5-min Rain = 0
KBY1 241916Z 11003KT 15/03 A301 RMK A01 T01470026  RH  044%=      5-min Rain = 0
KBY1 241917Z 13005KT 15/03 A301 RMK A01 T01470028  RH  045%=      5-min Rain = 0
KBY1 241918Z 15007KT 15/03 A301 RMK A01 T01470031  RH  046%=      5-min Rain = 0
KBY1 241919Z 14006KT 15/03 A301 RMK A01 T01470034  RH  047%=      5-min Rain = 0
KBY1 241920Z 12005KT 15/03 A301 RMK A01 T01470030  RH  046%=      5-min Rain = 0
KBY1 241921Z 10005KT 15/03 A301 RMK A01 T01460029  RH  045%=      5-min Rain = 0
KBY1 241922Z 06003KT 15/03 A301 RMK A01 T01460027  RH  045%=      5-min Rain = 0
KBY1 241923Z 06002KT 15/03 A301 RMK A01 T01460028  RH  045%=      5-min Rain = 0
KBY1 241924Z 15004KT 15/03 A301 RMK A01 T01460030  RH  046%=      5-min Rain = 0
KBY1 241925Z 18002KT 15/03 A301 RMK A01 T01460028  RH  045%=      5-min Rain = 0
KBY1 241926Z 13002KT 15/03 A301 RMK A01 T01470031  RH  046%=      5-min Rain = 0
KBY1 241927Z 11003KT 15/03 A301 RMK A01 T01480030  RH  045%=      5-min Rain = 0
KBY1 241928Z 09004KT 15/03 A301 RMK A01 T01490033  RH  046%=      5-min Rain = 0
KBY1 241929Z 16004KT 15/04 A301 RMK A01 T01510035  RH  046%=      5-min Rain = 0
KBY1 241930Z 15005KT 15/03 A301 RMK A01 T01520033  RH  045%=      5-min Rain = 0
KBY1 241931Z 12006KT 15/04 A301 RMK A01 T01530036  RH  046%=      5-min Rain = 0
KBY1 241932Z 11007KT 15/03 A301 RMK A01 T01530034  RH  045%=      5-min Rain = 0
KBY1 241933Z 12003KT 15/03 A301 RMK A01 T01510028  RH  044%=      5-min Rain = 0
KBY1 241934Z 10002KT 15/03 A301 RMK A01 T01480027  RH  044%=      5-min Rain = 0
KBY1 241935Z 15003KT 15/03 A301 RMK A01 T01480029  RH  045%=      5-min Rain = 0
KBY1 241936Z 13003KT 15/03 A301 RMK A01 T01500034  RH  046%=      5-min Rain = 0
KBY1 241937Z 13002KT 15/03 A301 RMK A01 T01510032  RH  045%=      5-min Rain = 0
KBY1 241938Z 16001KT 15/03 A301 RMK A01 T01520029  RH  044%=      5-min Rain = 0
KBY1 241939Z 11003KT 15/03 A301 RMK A01 T01520028  RH  043%=      5-min Rain = 0
KBY1 241940Z 10004KT 15/03 A301 RMK A01 T01530032  RH  044%=      5-min Rain = 0
KBY1 241941Z 06002KT 15/03 A301 RMK A01 T01530029  RH  043%=      5-min Rain = 0
KBY1 241942Z 03002KT 15/03 A301 RMK A01 T01520029  RH  044%=      5-min Rain = 0
KBY1 241943Z 06002KT 15/03 A301 RMK A01 T01510033  RH  045%=      5-min Rain = 0
KBY1 241944Z 17003KT 15/04 A301 RMK A01 T01530035  RH  045%=      5-min Rain = 0
KBY1 241945Z 18004KT 16/03 A301 RMK A01 T01550033  RH  044%=      5-min Rain = 0
KBY1 241946Z 14004KT 16/03 A301 RMK A01 T01550032  RH  044%=      5-min Rain = 0
KBY1 241947Z 13005KT 16/04 A301 RMK A01 T01550036  RH  045%=      5-min Rain = 0
KBY1 241948Z 12004KT 16/03 A301 RMK A01 T01570033  RH  043%=      5-min Rain = 0
KBY1 241949Z 09003KT 16/03 A301 RMK A01 T01560032  RH  043%=      5-min Rain = 0
KBY1 241950Z 08004KT 16/03 A301 RMK A01 T01570034  RH  044%=      5-min Rain = 0
KBY1 241951Z 06004KT 16/03 A301 RMK A01 T01570031  RH  043%=      5-min Rain = 0
KBY1 241952Z 06004KT 16/03 A301 RMK A01 T01560032  RH  043%=      5-min Rain = 0
KBY1 241953Z 10003KT 16/03 A3009 RMK A01 T01560030  RH  043%=      5-min Rain = 0
KBY1 241954Z 13004KT 16/03 A3009 RMK A01 T01560034  RH  044%=      5-min Rain = 0
KBY1 241955Z 15002KT 16/03 A3009 RMK A01 T01570032  RH  043%=      5-min Rain = 0
KBY1 241956Z 20001KT 16/04 A3009 RMK A01 T01580036  RH  044%=      5-min Rain = 0
KBY1 241957Z 22001KT 16/04 A3009 RMK A01 T01600035  RH  043%=      5-min Rain = 0
KBY1 241958Z 22003KT 16/03 A3009 RMK A01 T01610030  RH  042%=      5-min Rain = 0
KBY1 241959Z 24001KT 16/03 A3009 RMK A01 T01600031  RH  042%=      5-min Rain = 0
KBY1 242000Z 20003KT 16/04 A3009 RMK A01 T01600037  RH  044%=      5-min Rain = 0
KBY1 242001Z 17002KT 16/03 A3009 RMK A01 T01600034  RH  043%=      5-min Rain = 0
KBY1 242002Z 13004KT 16/03 A3009 RMK A01 T01610034  RH  043%=      5-min Rain = 0
KBY1 242003Z 13004KT 16/03 A3009 RMK A01 T01630034  RH  042%=      5-min Rain = 0
KBY1 242004Z 12007KT 16/04 A3009 RMK A01 T01640035  RH  042%=      5-min Rain = 0
KBY1 242005Z 12005KT 16/03 A3009 RMK A01 T01640034  RH  042%=      5-min Rain = 0
KBY1 242006Z 13002KT 16/04 A3009 RMK A01 T01630035  RH  042%=      5-min Rain = 0
KBY1 242007Z 33000KT 16/03 A3009 RMK A01 T01640029  RH  040%=      5-min Rain = 0
KBY1 242008Z 34000KT 17/03 A3009 RMK A01 T01650028  RH  040%=      5-min Rain = 0
KBY1 242009Z 33000KT 17/03 A3009 RMK A01 T01650027  RH  040%=      5-min Rain = 0
KBY1 242010Z 10002KT 17/03 A3009 RMK A01 T01650028  RH  040%=      5-min Rain = 0
KBY1 242011Z 12004KT 17/03 A3008 RMK A01 T01650031  RH  041%=      5-min Rain = 0
KBY1 242012Z 11005KT 17/03 A3008 RMK A01 T01660029  RH  040%=      5-min Rain = 0
KBY1 242013Z 08003KT 16/03 A3008 RMK A01 T01630027  RH  040%=      5-min Rain = 0
KBY1 242014Z 10002KT 16/03 A3008 RMK A01 T01620028  RH  041%=      5-min Rain = 0
KBY1 242015Z 10003KT 16/03 A3008 RMK A01 T01630030  RH  041%=      5-min Rain = 0
KBY1 242016Z 15002KT 16/03 A3008 RMK A01 T01630027  RH  040%=      5-min Rain = 0
KBY1 242017Z 13005KT 16/03 A3008 RMK A01 T01640032  RH  041%=      5-min Rain = 0
KBY1 242018Z 14007KT 17/04 A3008 RMK A01 T01670035  RH  041%=      5-min Rain = 0
KBY1 242019Z 16006KT 17/04 A3008 RMK A01 T01690038  RH  042%=      5-min Rain = 0
KBY1 242020Z 18006KT 17/03 A3008 RMK A01 T01710034  RH  040%=      5-min Rain = 0
KBY1 242021Z 18005KT 17/04 A3008 RMK A01 T01710035  RH  040%=      5-min Rain = 0
KBY1 242022Z 15003KT 17/03 A3008 RMK A01 T01710034  RH  040%=      5-min Rain = 0
KBY1 242023Z 16006KT 17/04 A3008 RMK A01 T01720036  RH  040%=      5-min Rain = 0
KBY1 242024Z 18007KT 17/04 A3008 RMK A01 T01740035  RH  040%=      5-min Rain = 0
KBY1 242025Z 19005KT 17/03 A3008 RMK A01 T01740033  RH  039%=      5-min Rain = 0
KBY1 242026Z 20005KT 17/03 A3008 RMK A01 T01730030  RH  038%=      5-min Rain = 0
KBY1 242027Z 21005KT 17/03 A3007 RMK A01 T01710030  RH  039%=      5-min Rain = 0
KBY1 242028Z 18003KT 17/03 A3007 RMK A01 T01710030  RH  039%=      5-min Rain = 0
KBY1 242029Z 17005KT 17/03 A3007 RMK A01 T01710031  RH  039%=      5-min Rain = 0
KBY1 242030Z 19006KT 17/03 A3007 RMK A01 T01710027  RH  038%=      5-min Rain = 0
KBY1 242031Z 19003KT 17/02 A3007 RMK A01 T01710022  RH  037%=      5-min Rain = 0
KBY1 242032Z 16004KT 17/02 A3007 RMK A01 T01700022  RH  037%=      5-min Rain = 0
KBY1 242033Z 16005KT 17/02 A3007 RMK A01 T01700022  RH  037%=      5-min Rain = 0
KBY1 242034Z 17003KT 17/02 A3007 RMK A01 T01700022  RH  037%=      5-min Rain = 0
KBY1 242035Z 18003KT 17/02 A3007 RMK A01 T01700019  RH  036%=      5-min Rain = 0
KBY1 242036Z 18002KT 17/02 A3007 RMK A01 T01720019  RH  036%=      5-min Rain = 0
KBY1 242037Z 15006KT 17/02 A3007 RMK A01 T01730021  RH  036%=      5-min Rain = 0
KBY1 242038Z 17002KT 17/02 A3007 RMK A01 T01730018  RH  035%=      5-min Rain = 0
KBY1 242039Z 01002KT 17/02 A3007 RMK A01 T01720016  RH  035%=      5-min Rain = 0
KBY1 242040Z 01002KT 17/02 A3007 RMK A01 T01710017  RH  035%=      5-min Rain = 0
KBY1 242041Z 35001KT 17/02 A3007 RMK A01 T01720022  RH  036%=      5-min Rain = 0
KBY1 242042Z 19005KT 18/02 A3007 RMK A01 T01750021  RH  036%=      5-min Rain = 0
KBY1 242043Z 19005KT 18/02 A3007 RMK A01 T01760021  RH  035%=      5-min Rain = 0
KBY1 242044Z 18004KT 18/02 A3007 RMK A01 T01770018  RH  034%=      5-min Rain = 0
KBY1 242045Z 19002KT 18/01 A3007 RMK A01 T01760010  RH  033%=      5-min Rain = 0
KBY1 242046Z 22002KT 18/02 A3007 RMK A01 T01750020  RH  035%=      5-min Rain = 0
KBY1 242047Z 20003KT 18/02 A3007 RMK A01 T01770022  RH  035%=      5-min Rain = 0
KBY1 242048Z 21002KT 18/02 A3007 RMK A01 T01790021  RH  035%=      5-min Rain = 0
KBY1 242049Z 18003KT 18/03 A3007 RMK A01 T01810025  RH  035%=      5-min Rain = 0
KBY1 242050Z 16003KT 18/03 A3007 RMK A01 T01830026  RH  035%=      5-min Rain = 0
KBY1 242051Z 15005KT 18/02 A3007 RMK A01 T01840021  RH  033%=      5-min Rain = 0
KBY1 242052Z 18007KT 18/03 A3007 RMK A01 T01840026  RH  035%=      5-min Rain = 0
KBY1 242053Z 19006KT 18/02 A3007 RMK A01 T01840024  RH  034%=      5-min Rain = 0
KBY1 242054Z 19005KT 18/02 A3007 RMK A01 T01810019  RH  034%=      5-min Rain = 0
KBY1 242055Z 21002KT 18/02 A3007 RMK A01 T01790019  RH  034%=      5-min Rain = 0
KBY1 242056Z 16001KT 18/01 A3007 RMK A01 T01780014  RH  033%=      5-min Rain = 0
KBY1 242057Z 09002KT 18/01 A3007 RMK A01 T01770014  RH  033%=      5-min Rain = 0
KBY1 242058Z 10002KT 18/02 A3007 RMK A01 T01760017  RH  034%=      5-min Rain = 0
KBY1 242059Z 10002KT 18/02 A3007 RMK A01 T01760018  RH  034%=      5-min Rain = 0
KBY1 242100Z 07004KT 18/02 A3007 RMK A01 T01760020  RH  035%=      5-min Rain = 0
KBY1 242101Z 08006KT 18/03 A3007 RMK A01 T01780028  RH  037%=      5-min Rain = 0
KBY1 242102Z 07005KT 18/02 A3007 RMK A01 T01800021  RH  035%=      5-min Rain = 0
KBY1 242103Z 07003KT 18/02 A3007 RMK A01 T01780019  RH  034%=      5-min Rain = 0
KBY1 242104Z 10005KT 18/02 A3007 RMK A01 T01780022  RH  035%=      5-min Rain = 0
KBY1 242105Z 13005KT 18/02 A3007 RMK A01 T01790022  RH  035%=      5-min Rain = 0
KBY1 242106Z 16003KT 18/02 A3007 RMK A01 T01800024  RH  035%=      5-min Rain = 0
KBY1 242107Z 16004KT 18/03 A3006 RMK A01 T01810025  RH  035%=      5-min Rain = 0
KBY1 242108Z 13004KT 18/03 A3006 RMK A01 T01830026  RH  035%=      5-min Rain = 0
KBY1 242109Z 14006KT 18/03 A3006 RMK A01 T01840027  RH  035%=      5-min Rain = 0
KBY1 242110Z 15003KT 18/02 A3006 RMK A01 T01840024  RH  034%=      5-min Rain = 0
KBY1 242111Z 12002KT 18/02 A3006 RMK A01 T01840018  RH  033%=      5-min Rain = 0
KBY1 242112Z 13003KT 18/02 A3006 RMK A01 T01820021  RH  034%=      5-min Rain = 0
KBY1 242113Z 15003KT 18/02 A3006 RMK A01 T01810020  RH  034%=      5-min Rain = 0
KBY1 242114Z 16007KT 18/03 A3006 RMK A01 T01820025  RH  035%=      5-min Rain = 0
KBY1 242115Z 17005KT 19/03 A3006 RMK A01 T01850030  RH  036%=      5-min Rain = 0
KBY1 242116Z 20005KT 19/02 A3006 RMK A01 T01870024  RH  034%=      5-min Rain = 0
KBY1 242117Z 21006KT 19/02 A3006 RMK A01 T01850022  RH  034%=      5-min Rain = 0
KBY1 242118Z 22007KT 18/03 A3006 RMK A01 T01830025  RH  035%=      5-min Rain = 0
KBY1 242119Z 24008KT 18/03 A3006 RMK A01 T01830025  RH  035%=      5-min Rain = 0
KBY1 242120Z 21005KT 18/02 A3006 RMK A01 T01820017  RH  033%=      5-min Rain = 0
KBY1 242121Z 20005KT 18/02 A3006 RMK A01 T01800022  RH  035%=      5-min Rain = 0
KBY1 242122Z 23003KT 18/02 A3006 RMK A01 T01800023  RH  035%=      5-min Rain = 0
KBY1 242123Z 26002KT 18/02 A3007 RMK A01 T01800021  RH  035%=      5-min Rain = 0
KBY1 242124Z 29002KT 18/02 A3007 RMK A01 T01810020  RH  034%=      5-min Rain = 0
KBY1 242125Z 29000KT 18/02 A3006 RMK A01 T01810024  RH  035%=      5-min Rain = 0
KBY1 242126Z 21001KT 18/02 A3006 RMK A01 T01820023  RH  034%=      5-min Rain = 0
KBY1 242127Z 21003KT 18/02 A3006 RMK A01 T01840024  RH  034%=      5-min Rain = 0
KBY1 242128Z 18002KT 19/02 A3007 RMK A01 T01850022  RH  034%=      5-min Rain = 0
KBY1 242129Z 14003KT 19/03 A3007 RMK A01 T01850027  RH  035%=      5-min Rain = 0
KBY1 242130Z 14004KT 19/03 A3007 RMK A01 T01860027  RH  035%=      5-min Rain = 0
KBY1 242131Z 12003KT 19/02 A3007 RMK A01 T01860024  RH  034%=      5-min Rain = 0
KBY1 242132Z 12004KT 19/02 A3007 RMK A01 T01850023  RH  034%=      5-min Rain = 0
KBY1 242133Z 11003KT 18/02 A3007 RMK A01 T01830023  RH  034%=      5-min Rain = 0
KBY1 242134Z 09003KT 18/02 A3007 RMK A01 T01830024  RH  035%=      5-min Rain = 0
KBY1 242135Z 09003KT 18/02 A3007 RMK A01 T01830021  RH  034%=      5-min Rain = 0
KBY1 242136Z 12001KT 18/02 A3007 RMK A01 T01820018  RH  033%=      5-min Rain = 0
KBY1 242137Z 00000KT 18/02 A3007 RMK A01 T01820018  RH  033%=      5-min Rain = 0
KBY1 242138Z 06001KT 18/02 A3007 RMK A01 T01830020  RH  034%=      5-min Rain = 0
KBY1 242139Z 06004KT 18/02 A3007 RMK A01 T01840021  RH  034%=      5-min Rain = 0
KBY1 242140Z 06004KT 18/02 A3007 RMK A01 T01830019  RH  033%=      5-min Rain = 0
KBY1 242141Z 05002KT 18/02 A3007 RMK A01 T01810017  RH  033%=      5-min Rain = 0
KBY1 242142Z 10001KT 18/02 A3007 RMK A01 T01800020  RH  034%=      5-min Rain = 0
KBY1 242143Z 05003KT 18/03 A3007 RMK A01 T01810029  RH  036%=      5-min Rain = 0
KBY1 242144Z 04002KT 18/02 A3007 RMK A01 T01830023  RH  034%=      5-min Rain = 0
KBY1 242145Z 35001KT 18/02 A3007 RMK A01 T01830018  RH  033%=      5-min Rain = 0
KBY1 242146Z 33001KT 18/02 A3007 RMK A01 T01830017  RH  033%=      5-min Rain = 0
KBY1 242147Z 29001KT 18/02 A3007 RMK A01 T01840021  RH  034%=      5-min Rain = 0
KBY1 242148Z 33003KT 19/02 A3007 RMK A01 T01850020  RH  033%=      5-min Rain = 0
KBY1 242149Z 34001KT 19/02 A3007 RMK A01 T01850018  RH  033%=      5-min Rain = 0
KBY1 242150Z 07002KT 19/03 A3007 RMK A01 T01850026  RH  035%=      5-min Rain = 0
KBY1 242151Z 10004KT 19/03 A3006 RMK A01 T01860028  RH  035%=      5-min Rain = 0
KBY1 242152Z 11004KT 19/03 A3006 RMK A01 T01870027  RH  035%=      5-min Rain = 0
KBY1 242153Z 09003KT 19/02 A3006 RMK A01 T01860021  RH  033%=      5-min Rain = 0
KBY1 242154Z 09005KT 18/03 A3006 RMK A01 T01840026  RH  035%=      5-min Rain = 0
KBY1 242155Z 08004KT 18/02 A3006 RMK A01 T01840023  RH  034%=      5-min Rain = 0
KBY1 242156Z 08003KT 18/02 A3006 RMK A01 T01840024  RH  034%=      5-min Rain = 0
KBY1 242157Z 10003KT 18/03 A3006 RMK A01 T01840025  RH  034%=      5-min Rain = 0
KBY1 242158Z 13004KT 18/02 A3006 RMK A01 T01840024  RH  034%=      5-min Rain = 0
KBY1 242159Z 13005KT 19/03 A3006 RMK A01 T01850028  RH  035%=      5-min Rain = 0
KBY1 242200Z 13003KT 19/02 A3006 RMK A01 T01850022  RH  034%=      5-min Rain = 0
KBY1 242201Z 08002KT 18/03 A3006 RMK A01 T01840026  RH  035%=      5-min Rain = 0
KBY1 242202Z 15005KT 18/03 A3006 RMK A01 T01840026  RH  035%=      5-min Rain = 0
KBY1 242203Z 16006KT 19/03 A3006 RMK A01 T01850029  RH  035%=      5-min Rain = 0
KBY1 242204Z 14002KT 19/03 A3006 RMK A01 T01850028  RH  035%=      5-min Rain = 0
KBY1 242205Z 16002KT 19/02 A3006 RMK A01 T01850024  RH  034%=      5-min Rain = 0
KBY1 242206Z 17004KT 19/02 A3006 RMK A01 T01860023  RH  034%=      5-min Rain = 0
KBY1 242207Z 18001KT 19/02 A3006 RMK A01 T01850022  RH  034%=      5-min Rain = 0
KBY1 242208Z 18004KT 19/03 A3006 RMK A01 T01850028  RH  035%=      5-min Rain = 0
KBY1 242209Z 17002KT 19/03 A3006 RMK A01 T01860027  RH  035%=      5-min Rain = 0
KBY1 242210Z 20003KT 19/03 A3006 RMK A01 T01870028  RH  035%=      5-min Rain = 0
KBY1 242211Z 22004KT 19/03 A3006 RMK A01 T01880031  RH  035%=      5-min Rain = 0
KBY1 242212Z 15003KT 19/03 A3006 RMK A01 T01880025  RH  034%=      5-min Rain = 0
KBY1 242213Z 12004KT 19/03 A3006 RMK A01 T01880028  RH  034%=      5-min Rain = 0
KBY1 242214Z 08003KT 19/03 A3006 RMK A01 T01880030  RH  035%=      5-min Rain = 0
KBY1 242215Z 09004KT 19/03 A3006 RMK A01 T01890025  RH  033%=      5-min Rain = 0
KBY1 242216Z 07003KT 19/03 A3006 RMK A01 T01880029  RH  035%=      5-min Rain = 0
KBY1 242217Z 05003KT 19/03 A3006 RMK A01 T01880026  RH  034%=      5-min Rain = 0
KBY1 242218Z 07002KT 19/02 A3006 RMK A01 T01870024  RH  034%=      5-min Rain = 0
KBY1 242219Z 11001KT 19/02 A3006 RMK A01 T01870023  RH  034%=      5-min Rain = 0
KBY1 242220Z 06002KT 19/03 A3006 RMK A01 T01870027  RH  035%=      5-min Rain = 0
KBY1 242221Z 05005KT 19/03 A3006 RMK A01 T01880030  RH  035%=      5-min Rain = 0
KBY1 242222Z 05002KT 19/03 A3005 RMK A01 T01880029  RH  035%=      5-min Rain = 0
KBY1 242223Z 19000KT 19/03 A3005 RMK A01 T01890027  RH  034%=      5-min Rain = 0
KBY1 242224Z 19001KT 19/03 A3005 RMK A01 T01890025  RH  034%=      5-min Rain = 0
KBY1 242225Z 13002KT 19/03 A3005 RMK A01 T01900029  RH  034%=      5-min Rain = 0
KBY1 242226Z 18002KT 19/03 A3005 RMK A01 T01910028  RH  034%=      5-min Rain = 0
KBY1 242227Z 13001KT 19/03 A3005 RMK A01 T01920029  RH  034%=      5-min Rain = 0
KBY1 242228Z 22003KT 19/03 A3005 RMK A01 T01930030  RH  034%=      5-min Rain = 0
KBY1 242229Z 12004KT 19/03 A3005 RMK A01 T01930030  RH  034%=      5-min Rain = 0
KBY1 242230Z 11003KT 19/03 A3005 RMK A01 T01930027  RH  033%=      5-min Rain = 0
KBY1 242231Z 08003KT 19/03 A3005 RMK A01 T01910028  RH  034%=      5-min Rain = 0
KBY1 242232Z 09003KT 19/03 A3005 RMK A01 T01900029  RH  034%=      5-min Rain = 0
KBY1 242233Z 12005KT 19/03 A3005 RMK A01 T01900029  RH  034%=      5-min Rain = 0
KBY1 242234Z 13005KT 19/03 A3005 RMK A01 T01900027  RH  034%=      5-min Rain = 0
KBY1 242235Z 14007KT 19/03 A3005 RMK A01 T01890032  RH  035%=      5-min Rain = 0
KBY1 242236Z 15006KT 19/03 A3005 RMK A01 T01900029  RH  034%=      5-min Rain = 0
KBY1 242237Z 14005KT 19/03 A3005 RMK A01 T01890033  RH  035%=      5-min Rain = 0
KBY1 242238Z 14004KT 19/03 A3005 RMK A01 T01890027  RH  034%=      5-min Rain = 0
KBY1 242239Z 13004KT 19/03 A3005 RMK A01 T01890028  RH  034%=      5-min Rain = 0
KBY1 242240Z 15004KT 19/03 A3005 RMK A01 T01890029  RH  034%=      5-min Rain = 0
KBY1 242241Z 15005KT 19/03 A3005 RMK A01 T01890032  RH  035%=      5-min Rain = 0
KBY1 242242Z 11008KT 19/04 A3005 RMK A01 T01910035  RH  035%=      5-min Rain = 0
KBY1 242243Z 10007KT 19/03 A3005 RMK A01 T01920029  RH  034%=      5-min Rain = 0
KBY1 242244Z 12007KT 19/03 A3005 RMK A01 T01900031  RH  035%=      5-min Rain = 0
KBY1 242245Z 11007KT 19/03 A3005 RMK A01 T01890027  RH  034%=      5-min Rain = 0
KBY1 242246Z 10007KT 19/03 A3005 RMK A01 T01870025  RH  034%=      5-min Rain = 0
KBY1 242247Z 10007KT 19/03 A3005 RMK A01 T01860026  RH  034%=      5-min Rain = 0
KBY1 242248Z 12006KT 19/03 A3005 RMK A01 T01860027  RH  035%=      5-min Rain = 0
KBY1 242249Z 12006KT 19/03 A3005 RMK A01 T01860029  RH  035%=      5-min Rain = 0
KBY1 242250Z 13007KT 19/03 A3005 RMK A01 T01870029  RH  035%=      5-min Rain = 0
KBY1 242251Z 12005KT 19/03 A3005 RMK A01 T01880026  RH  034%=      5-min Rain = 0
KBY1 242252Z 11005KT 19/03 A3004 RMK A01 T01870028  RH  035%=      5-min Rain = 0
KBY1 242253Z 10006KT 19/03 A3004 RMK A01 T01870028  RH  035%=      5-min Rain = 0
KBY1 242254Z 09006KT 19/03 A3004 RMK A01 T01870029  RH  035%=      5-min Rain = 0
KBY1 242255Z 09007KT 19/03 A3004 RMK A01 T01880033  RH  036%=      5-min Rain = 0
KBY1 242256Z 10008KT 19/03 A3004 RMK A01 T01890028  RH  034%=      5-min Rain = 0
KBY1 242257Z 11006KT 19/03 A3004 RMK A01 T01880031  RH  035%=      5-min Rain = 0
KBY1 242258Z 11007KT 19/03 A3004 RMK A01 T01880032  RH  036%=      5-min Rain = 0
KBY1 242259Z 14007KT 19/03 A3004 RMK A01 T01900034  RH  035%=      5-min Rain = 0
KBY1 242300Z 12007KT 19/03 A3004 RMK A01 T01900032  RH  035%=      5-min Rain = 0
KBY1 242301Z 10008KT 19/03 A3004 RMK A01 T01900031  RH  035%=      5-min Rain = 0
KBY1 242302Z 10008KT 19/03 A3004 RMK A01 T01890030  RH  035%=      5-min Rain = 0
KBY1 242303Z 10006KT 19/03 A3004 RMK A01 T01880029  RH  035%=      5-min Rain = 0
KBY1 242304Z 09007KT 19/03 A3003 RMK A01 T01880034  RH  036%=      5-min Rain = 0
KBY1 242305Z 10006KT 19/03 A3004 RMK A01 T01890032  RH  035%=      5-min Rain = 0
KBY1 242306Z 11004KT 19/03 A3004 RMK A01 T01890032  RH  035%=      5-min Rain = 0
KBY1 242307Z 13002KT 19/03 A3003 RMK A01 T01890028  RH  034%=      5-min Rain = 0
KBY1 242308Z 12003KT 19/03 A3003 RMK A01 T01890028  RH  034%=      5-min Rain = 0
KBY1 242309Z 12006KT 19/04 A3004 RMK A01 T01910039  RH  037%=      5-min Rain = 0
KBY1 242310Z 15005KT 19/03 A3004 RMK A01 T01930032  RH  034%=      5-min Rain = 0
KBY1 242311Z 13003KT 19/03 A3004 RMK A01 T01920030  RH  034%=      5-min Rain = 0
KBY1 242312Z 12002KT 19/03 A3004 RMK A01 T01910030  RH  034%=      5-min Rain = 0
KBY1 242313Z 09004KT 19/03 A3004 RMK A01 T01920034  RH  035%=      5-min Rain = 0
KBY1 242314Z 08006KT 19/03 A3004 RMK A01 T01920034  RH  035%=      5-min Rain = 0
KBY1 242315Z 08009KT 19/03 A3004 RMK A01 T01920034  RH  035%=      5-min Rain = 0
KBY1 242316Z 09005KT 19/03 A3004 RMK A01 T01910031  RH  035%=      5-min Rain = 0
KBY1 242317Z 10003KT 19/03 A3003 RMK A01 T01890030  RH  035%=      5-min Rain = 0
KBY1 242318Z 09005KT 19/03 A3004 RMK A01 T01890031  RH  035%=      5-min Rain = 0
KBY1 242319Z 08006KT 19/04 A3004 RMK A01 T01890035  RH  036%=      5-min Rain = 0
KBY1 242320Z 10008KT 19/04 A3004 RMK A01 T01910038  RH  036%=      5-min Rain = 0
KBY1 242321Z 10006KT 19/04 A3004 RMK A01 T01920035  RH  035%=      5-min Rain = 0
KBY1 242322Z 10007KT 19/04 A3003 RMK A01 T01920038  RH  036%=      5-min Rain = 0
KBY1 242323Z 11007KT 19/04 A3003 RMK A01 T01930036  RH  035%=      5-min Rain = 0
KBY1 242324Z 11008KT 19/03 A3003 RMK A01 T01920028  RH  034%=      5-min Rain = 0
KBY1 242325Z 12007KT 19/03 A3003 RMK A01 T01920029  RH  034%=      5-min Rain = 0
KBY1 242326Z 13008KT 19/03 A3003 RMK A01 T01910027  RH  034%=      5-min Rain = 0
KBY1 242327Z 13008KT 19/03 A3003 RMK A01 T01910030  RH  034%=      5-min Rain = 0
KBY1 242328Z 13007KT 19/03 A3003 RMK A01 T01910027  RH  033%=      5-min Rain = 0
KBY1 242329Z 13006KT 19/03 A3003 RMK A01 T01910025  RH  033%=      5-min Rain = 0
KBY1 242330Z 12007KT 19/03 A3003 RMK A01 T01900028  RH  034%=      5-min Rain = 0
KBY1 242331Z 12006KT 19/03 A3003 RMK A01 T01900028  RH  034%=      5-min Rain = 0
KBY1 242332Z 12004KT 19/03 A3003 RMK A01 T01900029  RH  034%=      5-min Rain = 0
KBY1 242333Z 15004KT 19/03 A3003 RMK A01 T01910030  RH  034%=      5-min Rain = 0
KBY1 242334Z 14004KT 19/03 A3003 RMK A01 T01920030  RH  034%=      5-min Rain = 0
KBY1 242335Z 14005KT 19/03 A3003 RMK A01 T01930032  RH  034%=      5-min Rain = 0
KBY1 242336Z 17004KT 19/03 A3003 RMK A01 T01930031  RH  034%=      5-min Rain = 0
KBY1 242337Z 16005KT 19/03 A3003 RMK A01 T01930028  RH  033%=      5-min Rain = 0
KBY1 242338Z 17005KT 19/03 A3003 RMK A01 T01930027  RH  033%=      5-min Rain = 0
KBY1 242339Z 14005KT 19/03 A3004 RMK A01 T01920028  RH  034%=      5-min Rain = 0
KBY1 242340Z 15006KT 19/03 A3004 RMK A01 T01930027  RH  033%=      5-min Rain = 0
KBY1 242341Z 14008KT 19/03 A3004 RMK A01 T01920026  RH  033%=      5-min Rain = 0
KBY1 242342Z 15006KT 19/03 A3004 RMK A01 T01910026  RH  033%=      5-min Rain = 0
KBY1 242343Z 13006KT 19/03 A3004 RMK A01 T01900030  RH  034%=      5-min Rain = 0
KBY1 242344Z 11009KT 19/03 A3004 RMK A01 T01900032  RH  035%=      5-min Rain = 0
KBY1 242345Z 10009KT 19/03 A3004 RMK A01 T01900033  RH  035%=      5-min Rain = 0
KBY1 242346Z 13007KT 19/04 A3004 RMK A01 T01900035  RH  036%=      5-min Rain = 0
KBY1 242347Z 14006KT 19/03 A3004 RMK A01 T01890031  RH  035%=      5-min Rain = 0
KBY1 242348Z 14006KT 19/03 A3004 RMK A01 T01900030  RH  034%=      5-min Rain = 0
KBY1 242349Z 14005KT 19/03 A3004 RMK A01 T01900031  RH  035%=      5-min Rain = 0
KBY1 242350Z 17006KT 19/03 A3004 RMK A01 T01910030  RH  034%=      5-min Rain = 0
KBY1 242351Z 15007KT 19/03 A3004 RMK A01 T01900028  RH  034%=      5-min Rain = 0
KBY1 242352Z 14007KT 19/03 A3004 RMK A01 T01910027  RH  034%=      5-min Rain = 0
KBY1 242353Z 15007KT 19/03 A3004 RMK A01 T01910027  RH  034%=      5-min Rain = 0
KBY1 242354Z 15008KT 19/03 A3004 RMK A01 T01900027  RH  034%=      5-min Rain = 0
KBY1 242355Z 15006KT 19/03 A3004 RMK A01 T01900026  RH  034%=      5-min Rain = 0
KBY1 242356Z 14006KT 19/03 A3004 RMK A01 T01890028  RH  034%=      5-min Rain = 0
KBY1 242357Z 12006KT 19/03 A3004 RMK A01 T01890030  RH  035%=      5-min Rain = 0
KBY1 242358Z 12008KT 19/03 A3004 RMK A01 T01890028  RH  034%=      5-min Rain = 0
KBY1 242359Z 12006KT 19/03 A3004 RMK A01 T01890027  RH  034%=      5-min Rain = 0
KBY1 250000Z 12007KT 19/03 A3004 RMK A01 T01880027  RH  034%=      5-min Rain = 0
KBY1 250001Z 12008KT 19/03 A3003 RMK A01 T01880029  RH  035%=      5-min Rain = 0
KBY1 250002Z 13007KT 19/03 A3003 RMK A01 T01880027  RH  034%=      5-min Rain = 0
KBY1 250003Z 13006KT 19/03 A3003 RMK A01 T01880026  RH  034%=      5-min Rain = 0
KBY1 250004Z 13005KT 19/03 A3003 RMK A01 T01870029  RH  035%=      5-min Rain = 0
KBY1 250005Z 14005KT 19/03 A3003 RMK A01 T01880030  RH  035%=      5-min Rain = 0
KBY1 250006Z 12006KT 19/03 A3003 RMK A01 T01870030  RH  035%=      5-min Rain = 0
KBY1 250007Z 11006KT 19/03 A3003 RMK A01 T01870028  RH  035%=      5-min Rain = 0
KBY1 250008Z 12007KT 19/03 A3003 RMK A01 T01870028  RH  035%=      5-min Rain = 0
KBY1 250009Z 12008KT 19/03 A3003 RMK A01 T01870029  RH  035%=      5-min Rain = 0
KBY1 250010Z 12009KT 19/03 A3003 RMK A01 T01860031  RH  035%=      5-min Rain = 0
KBY1 250011Z 12009KT 19/03 A3003 RMK A01 T01860032  RH  036%=      5-min Rain = 0
KBY1 250012Z 12009KT 19/03 A3003 RMK A01 T01850033  RH  036%=      5-min Rain = 0
KBY1 250013Z 11008KT 19/03 A3003 RMK A01 T01850032  RH  036%=      5-min Rain = 0
KBY1 250014Z 12008KT 19/03 A3003 RMK A01 T01850033  RH  036%=      5-min Rain = 0
KBY1 250015Z 11007KT 18/03 A3003 RMK A01 T01840030  RH  036%=      5-min Rain = 0
KBY1 250016Z 11007KT 18/03 A3003 RMK A01 T01840029  RH  036%=      5-min Rain = 0
KBY1 250017Z 11008KT 18/03 A3003 RMK A01 T01840031  RH  036%=      5-min Rain = 0
KBY1 250018Z 12007KT 18/03 A3003 RMK A01 T01840030  RH  036%=      5-min Rain = 0
KBY1 250019Z 13008KT 18/03 A3003 RMK A01 T01840031  RH  036%=      5-min Rain = 0
KBY1 250020Z 12008KT 18/03 A3003 RMK A01 T01840032  RH  037%=      5-min Rain = 0
KBY1 250021Z 12009KT 18/03 A3003 RMK A01 T01830029  RH  036%=      5-min Rain = 0
KBY1 250022Z 11008KT 18/03 A3003 RMK A01 T01830029  RH  036%=      5-min Rain = 0
KBY1 250023Z 11009KT 18/03 A3003 RMK A01 T01820030  RH  036%=      5-min Rain = 0
KBY1 250024Z 12009KT 18/03 A3003 RMK A01 T01820029  RH  036%=      5-min Rain = 0
KBY1 250025Z 12009KT 18/03 A3003 RMK A01 T01820030  RH  036%=      5-min Rain = 0
KBY1 250026Z 12008KT 18/03 A3003 RMK A01 T01810029  RH  036%=      5-min Rain = 0
KBY1 250027Z 12007KT 18/03 A3003 RMK A01 T01810031  RH  037%=      5-min Rain = 0
KBY1 250028Z 12008KT 18/03 A3003 RMK A01 T01800032  RH  037%=      5-min Rain = 0
KBY1 250029Z 12007KT 18/03 A3003 RMK A01 T01800033  RH  037%=      5-min Rain = 0
KBY1 250030Z 11008KT 18/03 A3003 RMK A01 T01790032  RH  038%=      5-min Rain = 0
KBY1 250031Z 12007KT 18/03 A3003 RMK A01 T01790032  RH  038%=      5-min Rain = 0
KBY1 250032Z 11007KT 18/03 A3003 RMK A01 T01780032  RH  038%=      5-min Rain = 0
KBY1 250033Z 11007KT 18/03 A3003 RMK A01 T01780033  RH  038%=      5-min Rain = 0
KBY1 250034Z 11007KT 18/03 A3003 RMK A01 T01770033  RH  038%=      5-min Rain = 0
KBY1 250035Z 11007KT 18/03 A3003 RMK A01 T01770033  RH  038%=      5-min Rain = 0
KBY1 250036Z 11007KT 18/03 A3003 RMK A01 T01750034  RH  039%=      5-min Rain = 0
KBY1 250037Z 12006KT 17/04 A3003 RMK A01 T01740035  RH  039%=      5-min Rain = 0
KBY1 250038Z 12006KT 17/04 A3003 RMK A01 T01740035  RH  039%=      5-min Rain = 0
KBY1 250039Z 12007KT 17/04 A3003 RMK A01 T01730035  RH  040%=      5-min Rain = 0
KBY1 250040Z 11007KT 17/03 A3004 RMK A01 T01730034  RH  040%=      5-min Rain = 0
KBY1 250041Z 12007KT 17/03 A3004 RMK A01 T01720034  RH  040%=      5-min Rain = 0
KBY1 250042Z 12007KT 17/03 A3004 RMK A01 T01720034  RH  040%=      5-min Rain = 0
KBY1 250043Z 12006KT 17/03 A3004 RMK A01 T01710034  RH  040%=      5-min Rain = 0
KBY1 250044Z 12005KT 17/04 A3004 RMK A01 T01700035  RH  040%=      5-min Rain = 0
KBY1 250045Z 11005KT 17/04 A3004 RMK A01 T01690035  RH  041%=      5-min Rain = 0
KBY1 250046Z 11005KT 17/04 A3004 RMK A01 T01680035  RH  041%=      5-min Rain = 0
KBY1 250047Z 12006KT 17/03 A3004 RMK A01 T01670034  RH  041%=      5-min Rain = 0
KBY1 250048Z 12005KT 17/03 A3004 RMK A01 T01660034  RH  041%=      5-min Rain = 0
KBY1 250049Z 12005KT 17/04 A3004 RMK A01 T01650035  RH  042%=      5-min Rain = 0
KBY1 250050Z 11005KT 16/03 A3004 RMK A01 T01640034  RH  042%=      5-min Rain = 0
KBY1 250051Z 11005KT 16/03 A3004 RMK A01 T01630034  RH  042%=      5-min Rain = 0
KBY1 250052Z 11005KT 16/03 A3004 RMK A01 T01620034  RH  042%=      5-min Rain = 0
KBY1 250053Z 11005KT 16/03 A3004 RMK A01 T01610034  RH  043%=      5-min Rain = 0
KBY1 250054Z 11005KT 16/03 A3004 RMK A01 T01600034  RH  043%=      5-min Rain = 0
KBY1 250055Z 11006KT 16/04 A3004 RMK A01 T01590035  RH  044%=      5-min Rain = 0
KBY1 250056Z 10006KT 16/03 A3004 RMK A01 T01570034  RH  044%=      5-min Rain = 0
KBY1 250057Z 10006KT 16/03 A3004 RMK A01 T01560033  RH  044%=      5-min Rain = 0
KBY1 250058Z 10005KT 16/03 A3004 RMK A01 T01560034  RH  044%=      5-min Rain = 0
KBY1 250059Z 11005KT 15/04 A3004 RMK A01 T01540035  RH  045%=      5-min Rain = 0
KBY1 250100Z 11005KT 15/03 A3004 RMK A01 T01530034  RH  045%=      5-min Rain = 0
KBY1 250101Z 11005KT 15/04 A3004 RMK A01 T01520035  RH  045%=      5-min Rain = 0
KBY1 250102Z 11005KT 15/03 A3004 RMK A01 T01520034  RH  045%=      5-min Rain = 0
KBY1 250103Z 11006KT 15/03 A3004 RMK A01 T01510034  RH  045%=      5-min Rain = 0
KBY1 250104Z 11005KT 15/03 A3004 RMK A01 T01510033  RH  045%=      5-min Rain = 0
KBY1 250105Z 11005KT 15/03 A3004 RMK A01 T01510034  RH  045%=      5-min Rain = 0
KBY1 250106Z 11005KT 15/03 A3004 RMK A01 T01510033  RH  045%=      5-min Rain = 0
KBY1 250107Z 12005KT 15/03 A3004 RMK A01 T01500034  RH  046%=      5-min Rain = 0
KBY1 250108Z 12005KT 15/03 A3004 RMK A01 T01490034  RH  046%=      5-min Rain = 0
KBY1 250109Z 12005KT 15/03 A3004 RMK A01 T01480034  RH  046%=      5-min Rain = 0
KBY1 250110Z 12005KT 15/03 A3004 RMK A01 T01480033  RH  046%=      5-min Rain = 0
KBY1 250111Z 12005KT 15/03 A3004 RMK A01 T01480033  RH  046%=      5-min Rain = 0
KBY1 250112Z 11005KT 15/03 A3004 RMK A01 T01470034  RH  046%=      5-min Rain = 0
KBY1 250113Z 11005KT 15/03 A3004 RMK A01 T01460033  RH  047%=      5-min Rain = 0
KBY1 250114Z 11004KT 15/03 A3004 RMK A01 T01450033  RH  047%=      5-min Rain = 0
KBY1 250115Z 10005KT 14/03 A3004 RMK A01 T01430033  RH  047%=      5-min Rain = 0
KBY1 250116Z 10005KT 14/03 A3004 RMK A01 T01420033  RH  048%=      5-min Rain = 0
KBY1 250117Z 10005KT 14/03 A3004 RMK A01 T01400034  RH  049%=      5-min Rain = 0
KBY1 250118Z 10005KT 14/03 A3004 RMK A01 T01390034  RH  049%=      5-min Rain = 0
KBY1 250119Z 10004KT 14/04 A3004 RMK A01 T01380035  RH  050%=      5-min Rain = 0
KBY1 250120Z 10005KT 14/04 A3004 RMK A01 T01370035  RH  050%=      5-min Rain = 0
KBY1 250121Z 10005KT 14/03 A3004 RMK A01 T01360034  RH  050%=      5-min Rain = 0
KBY1 250122Z 10005KT 14/03 A3005 RMK A01 T01360034  RH  050%=      5-min Rain = 0
KBY1 250123Z 10005KT 14/03 A3005 RMK A01 T01350033  RH  050%=      5-min Rain = 0
KBY1 250124Z 10005KT 14/03 A3005 RMK A01 T01350033  RH  050%=      5-min Rain = 0
KBY1 250125Z 10005KT 14/03 A3005 RMK A01 T01350033  RH  050%=      5-min Rain = 0
KBY1 250126Z 10004KT 14/03 A3005 RMK A01 T01350032  RH  050%=      5-min Rain = 0
KBY1 250127Z 09004KT 14/03 A3005 RMK A01 T01350032  RH  050%=      5-min Rain = 0
KBY1 250128Z 09003KT 13/03 A3005 RMK A01 T01340032  RH  050%=      5-min Rain = 0
KBY1 250129Z 08004KT 13/03 A3005 RMK A01 T01330032  RH  051%=      5-min Rain = 0
KBY1 250130Z 08005KT 13/03 A3005 RMK A01 T01320032  RH  051%=      5-min Rain = 0
KBY1 250131Z 08005KT 13/03 A3005 RMK A01 T01330033  RH  051%=      5-min Rain = 0
KBY1 250132Z 08005KT 13/03 A3005 RMK A01 T01330034  RH  051%=      5-min Rain = 0
KBY1 250133Z 08006KT 13/04 A3005 RMK A01 T01340035  RH  051%=      5-min Rain = 0
KBY1 250134Z 08006KT 13/04 A3005 RMK A01 T01340035  RH  051%=      5-min Rain = 0
KBY1 250135Z 08006KT 13/04 A3005 RMK A01 T01330036  RH  052%=      5-min Rain = 0
KBY1 250136Z 08005KT 13/04 A3005 RMK A01 T01320037  RH  052%=      5-min Rain = 0
KBY1 250137Z 08005KT 13/04 A3005 RMK A01 T01320038  RH  053%=      5-min Rain = 0
KBY1 250138Z 08006KT 13/04 A3005 RMK A01 T01310038  RH  053%=      5-min Rain = 0
KBY1 250139Z 08006KT 13/04 A3005 RMK A01 T01320038  RH  053%=      5-min Rain = 0
KBY1 250140Z 08007KT 13/04 A3005 RMK A01 T01320038  RH  053%=      5-min Rain = 0
KBY1 250141Z 08007KT 13/04 A3005 RMK A01 T01310039  RH  053%=      5-min Rain = 0
KBY1 250142Z 08007KT 13/04 A3005 RMK A01 T01320039  RH  053%=      5-min Rain = 0
KBY1 250143Z 08006KT 13/04 A3005 RMK A01 T01330040  RH  053%=      5-min Rain = 0
KBY1 250144Z 08007KT 13/04 A3005 RMK A01 T01340041  RH  053%=      5-min Rain = 0
KBY1 250145Z 09007KT 14/04 A3005 RMK A01 T01350040  RH  052%=      5-min Rain = 0
KBY1 250146Z 08007KT 14/04 A3005 RMK A01 T01370040  RH  052%=      5-min Rain = 0
KBY1 250147Z 08006KT 14/04 A3005 RMK A01 T01380040  RH  052%=      5-min Rain = 0
KBY1 250148Z 09006KT 14/04 A3005 RMK A01 T01370040  RH  052%=      5-min Rain = 0
KBY1 250149Z 09007KT 14/04 A3005 RMK A01 T01370039  RH  052%=      5-min Rain = 0
KBY1 250150Z 09006KT 14/04 A3006 RMK A01 T01370040  RH  052%=      5-min Rain = 0
KBY1 250151Z 09006KT 14/04 A3006 RMK A01 T01360040  RH  052%=      5-min Rain = 0
KBY1 250152Z 09006KT 14/04 A3006 RMK A01 T01360041  RH  052%=      5-min Rain = 0
KBY1 250153Z 09006KT 14/04 A3006 RMK A01 T01350041  RH  053%=      5-min Rain = 0
KBY1 250154Z 09006KT 13/04 A3006 RMK A01 T01330040  RH  053%=      5-min Rain = 0
KBY1 250155Z 09005KT 13/04 A3006 RMK A01 T01320040  RH  054%=      5-min Rain = 0
KBY1 250156Z 09005KT 13/04 A3006 RMK A01 T01310040  RH  054%=      5-min Rain = 0
KBY1 250157Z 09005KT 13/04 A3006 RMK A01 T01290039  RH  054%=      5-min Rain = 0
KBY1 250158Z 09006KT 13/04 A3006 RMK A01 T01280039  RH  055%=      5-min Rain = 0
KBY1 250159Z 09006KT 13/04 A3006 RMK A01 T01280040  RH  055%=      5-min Rain = 0
KBY1 250200Z 09006KT 13/04 A3006 RMK A01 T01280040  RH  055%=      5-min Rain = 0
KBY1 250201Z 08006KT 13/04 A3006 RMK A01 T01280040  RH  055%=      5-min Rain = 0
KBY1 250202Z 08005KT 13/04 A3006 RMK A01 T01280040  RH  055%=      5-min Rain = 0
KBY1 250203Z 08005KT 13/04 A3006 RMK A01 T01270040  RH  055%=      5-min Rain = 0
KBY1 250204Z 08005KT 13/04 A3007 RMK A01 T01270040  RH  056%=      5-min Rain = 0
KBY1 250205Z 08006KT 13/04 A3007 RMK A01 T01270040  RH  055%=      5-min Rain = 0
KBY1 250206Z 08005KT 13/04 A3007 RMK A01 T01270039  RH  055%=      5-min Rain = 0
KBY1 250207Z 07005KT 13/04 A3007 RMK A01 T01280040  RH  055%=      5-min Rain = 0
KBY1 250208Z 06004KT 13/04 A3007 RMK A01 T01280040  RH  055%=      5-min Rain = 0
KBY1 250209Z 05005KT 13/04 A3007 RMK A01 T01270041  RH  056%=      5-min Rain = 0
KBY1 250210Z 05005KT 13/04 A3007 RMK A01 T01270041  RH  056%=      5-min Rain = 0
KBY1 250211Z 06006KT 13/04 A3008 RMK A01 T01280041  RH  056%=      5-min Rain = 0
KBY1 250212Z 05006KT 13/04 A3008 RMK A01 T01290041  RH  055%=      5-min Rain = 0
KBY1 250213Z 05006KT 13/04 A3008 RMK A01 T01320041  RH  054%=      5-min Rain = 0
KBY1 250214Z 04005KT 13/04 A3008 RMK A01 T01330040  RH  053%=      5-min Rain = 0
KBY1 250215Z 04006KT 13/04 A3008 RMK A01 T01330040  RH  053%=      5-min Rain = 0
KBY1 250216Z 04006KT 13/04 A3008 RMK A01 T01330040  RH  053%=      5-min Rain = 0
KBY1 250217Z 04006KT 13/04 A3008 RMK A01 T01330040  RH  053%=      5-min Rain = 0
KBY1 250218Z 04007KT 13/04 A3008 RMK A01 T01320040  RH  054%=      5-min Rain = 0
KBY1 250219Z 05007KT 13/04 A3008 RMK A01 T01320040  RH  054%=      5-min Rain = 0
KBY1 250220Z 05006KT 13/04 A3008 RMK A01 T01320040  RH  054%=      5-min Rain = 0
KBY1 250221Z 05006KT 13/04 A3008 RMK A01 T01310040  RH  054%=      5-min Rain = 0
KBY1 250222Z 05006KT 13/04 A3008 RMK A01 T01310040  RH  054%=      5-min Rain = 0
KBY1 250223Z 05006KT 13/04 A3008 RMK A01 T01310040  RH  054%=      5-min Rain = 0
KBY1 250224Z 05006KT 13/04 A3008 RMK A01 T01310040  RH  054%=      5-min Rain = 0
KBY1 250225Z 05005KT 13/04 A3008 RMK A01 T01300041  RH  055%=      5-min Rain = 0
KBY1 250226Z 05006KT 13/04 A3008 RMK A01 T01300040  RH  055%=      5-min Rain = 0
KBY1 250227Z 05007KT 13/04 A3008 RMK A01 T01290040  RH  055%=      5-min Rain = 0
KBY1 250228Z 06007KT 13/04 A3008 RMK A01 T01300040  RH  054%=      5-min Rain = 0
KBY1 250229Z 06006KT 13/04 A3008 RMK A01 T01300040  RH  054%=      5-min Rain = 0
KBY1 250230Z 06007KT 13/04 A3008 RMK A01 T01300041  RH  055%=      5-min Rain = 0
KBY1 250231Z 06006KT 13/04 A3008 RMK A01 T01290041  RH  055%=      5-min Rain = 0
KBY1 250232Z 07006KT 13/04 A3008 RMK A01 T01290041  RH  055%=      5-min Rain = 0
KBY1 250233Z 08006KT 13/04 A3008 RMK A01 T01280041  RH  055%=      5-min Rain = 0
KBY1 250234Z 08006KT 13/04 A3008 RMK A01 T01270041  RH  056%=      5-min Rain = 0
KBY1 250235Z 08006KT 13/04 A3008 RMK A01 T01270041  RH  056%=      5-min Rain = 0
KBY1 250236Z 08005KT 13/04 A3008 RMK A01 T01260041  RH  056%=      5-min Rain = 0
KBY1 250237Z 07006KT 13/04 A3009 RMK A01 T01250040  RH  056%=      5-min Rain = 0
KBY1 250238Z 07007KT 13/04 A3009 RMK A01 T01250040  RH  056%=      5-min Rain = 0
KBY1 250239Z 07007KT 13/04 A3009 RMK A01 T01270041  RH  056%=      5-min Rain = 0
KBY1 250240Z 07006KT 13/04 A3009 RMK A01 T01270041  RH  056%=      5-min Rain = 0
KBY1 250241Z 08008KT 13/04 A3009 RMK A01 T01270041  RH  056%=      5-min Rain = 0
KBY1 250242Z 08007KT 13/04 A3009 RMK A01 T01270040  RH  055%=      5-min Rain = 0
KBY1 250243Z 08007KT 13/04 A3009 RMK A01 T01280041  RH  055%=      5-min Rain = 0
KBY1 250244Z 09006KT 13/04 A3009 RMK A01 T01270041  RH  056%=      5-min Rain = 0
KBY1 250245Z 09006KT 13/04 A3009 RMK A01 T01270041  RH  056%=      5-min Rain = 0
KBY1 250246Z 09007KT 13/04 A3009 RMK A01 T01250041  RH  056%=      5-min Rain = 0
KBY1 250247Z 10006KT 12/04 A3009 RMK A01 T01240041  RH  057%=      5-min Rain = 0
KBY1 250248Z 10005KT 13/04 A3009 RMK A01 T01250041  RH  057%=      5-min Rain = 0
KBY1 250249Z 12003KT 12/04 A3009 RMK A01 T01230041  RH  057%=      5-min Rain = 0
KBY1 250250Z 13003KT 12/04 A3009 RMK A01 T01220039  RH  057%=      5-min Rain = 0
KBY1 250251Z 11004KT 12/04 A3009 RMK A01 T01190039  RH  058%=      5-min Rain = 0
KBY1 250252Z 09005KT 12/04 A3009 RMK A01 T01180039  RH  058%=      5-min Rain = 0
KBY1 250253Z 11004KT 12/04 A3009 RMK A01 T01170039  RH  059%=      5-min Rain = 0
KBY1 250254Z 11004KT 12/04 A301 RMK A01 T01170039  RH  059%=      5-min Rain = 0
KBY1 250255Z 11004KT 12/04 A301 RMK A01 T01170039  RH  059%=      5-min Rain = 0
KBY1 250256Z 11004KT 12/04 A301 RMK A01 T01160039  RH  059%=      5-min Rain = 0
KBY1 250257Z 11004KT 12/04 A301 RMK A01 T01150039  RH  060%=      5-min Rain = 0
KBY1 250258Z 12004KT 11/04 A301 RMK A01 T01130039  RH  060%=      5-min Rain = 0
KBY1 250259Z 12004KT 11/04 A301 RMK A01 T01100038  RH  061%=      5-min Rain = 0
KBY1 250300Z 12004KT 11/04 A301 RMK A01 T01080038  RH  062%=      5-min Rain = 0
KBY1 250301Z 13004KT 11/04 A301 RMK A01 T01060037  RH  062%=      5-min Rain = 0
KBY1 250302Z 13004KT 11/04 A301 RMK A01 T01050037  RH  063%=      5-min Rain = 0
KBY1 250303Z 13003KT 10/04 A301 RMK A01 T01040037  RH  063%=      5-min Rain = 0
KBY1 250304Z 13003KT 10/04 A301 RMK A01 T01040037  RH  063%=      5-min Rain = 0
KBY1 250305Z 14003KT 10/04 A301 RMK A01 T01030037  RH  063%=      5-min Rain = 0
KBY1 250306Z 15003KT 10/04 A301 RMK A01 T01020037  RH  064%=      5-min Rain = 0
KBY1 250307Z 15003KT 10/04 A301 RMK A01 T01020037  RH  064%=      5-min Rain = 0
KBY1 250308Z 14003KT 10/04 A301 RMK A01 T01010038  RH  065%=      5-min Rain = 0
KBY1 250309Z 13003KT 10/04 A301 RMK A01 T01010038  RH  065%=      5-min Rain = 0
KBY1 250310Z 13003KT 10/04 A301 RMK A01 T01010039  RH  065%=      5-min Rain = 0
KBY1 250311Z 12003KT 10/04 A301 RMK A01 T01010038  RH  065%=      5-min Rain = 0
KBY1 250312Z 11004KT 10/04 A301 RMK A01 T01010039  RH  065%=      5-min Rain = 0
KBY1 250313Z 11004KT 10/04 A301 RMK A01 T01020039  RH  065%=      5-min Rain = 0
KBY1 250314Z 11005KT 10/04 A301 RMK A01 T01030038  RH  064%=      5-min Rain = 0
KBY1 250315Z 12005KT 10/04 A301 RMK A01 T01030037  RH  064%=      5-min Rain = 0
KBY1 250316Z 13004KT 10/04 A3011 RMK A01 T01030037  RH  064%=      5-min Rain = 0
KBY1 250317Z 14003KT 10/04 A3011 RMK A01 T01020037  RH  064%=      5-min Rain = 0
KBY1 250318Z 13003KT 10/04 A3011 RMK A01 T01000037  RH  065%=      5-min Rain = 0
KBY1 250319Z 13003KT 10/04 A3011 RMK A01 T01000038  RH  065%=      5-min Rain = 0
KBY1 250320Z 13003KT 10/04 A3011 RMK A01 T01000038  RH  065%=      5-min Rain = 0
KBY1 250321Z 13002KT 10/04 A3011 RMK A01 T01000038  RH  065%=      5-min Rain = 0
KBY1 250322Z 13002KT 10/04 A3011 RMK A01 T01000038  RH  065%=      5-min Rain = 0
KBY1 250323Z 14002KT 10/04 A3011 RMK A01 T01000038  RH  065%=      5-min Rain = 0
KBY1 250324Z 14001KT 10/04 A3011 RMK A01 T00990037  RH  065%=      5-min Rain = 0
KBY1 250325Z 13001KT 10/04 A3011 RMK A01 T00990038  RH  066%=      5-min Rain = 0
KBY1 250326Z 09001KT 10/04 A3011 RMK A01 T00990038  RH  066%=      5-min Rain = 0
KBY1 250327Z 06001KT 10/04 A3011 RMK A01 T00990038  RH  066%=      5-min Rain = 0
KBY1 250328Z 05001KT 10/04 A3011 RMK A01 T00980037  RH  066%=      5-min Rain = 0
KBY1 250329Z 04001KT 10/04 A3011 RMK A01 T00980038  RH  066%=      5-min Rain = 0
KBY1 250330Z 04001KT 10/04 A3011 RMK A01 T00980038  RH  066%=      5-min Rain = 0
KBY1 250331Z 04001KT 10/04 A3011 RMK A01 T00980038  RH  066%=      5-min Rain = 0
KBY1 250332Z 05001KT 10/04 A3011 RMK A01 T00980037  RH  066%=      5-min Rain = 0
KBY1 250333Z 06000KT 10/04 A3011 RMK A01 T00980037  RH  066%=      5-min Rain = 0
KBY1 250334Z 09000KT 10/04 A3011 RMK A01 T00980038  RH  066%=      5-min Rain = 0
KBY1 250335Z 09001KT 10/04 A3011 RMK A01 T00980038  RH  066%=      5-min Rain = 0
KBY1 250336Z 09001KT 10/04 A3011 RMK A01 T00980038  RH  066%=      5-min Rain = 0
KBY1 250337Z 09001KT 10/04 A3012 RMK A01 T00980038  RH  066%=      5-min Rain = 0
KBY1 250338Z 07001KT 10/04 A3012 RMK A01 T00990038  RH  066%=      5-min Rain = 0
KBY1 250339Z 04001KT 10/04 A3012 RMK A01 T00990038  RH  066%=      5-min Rain = 0
KBY1 250340Z 06002KT 10/04 A3012 RMK A01 T00990038  RH  066%=      5-min Rain = 0
KBY1 250341Z 07002KT 10/04 A3012 RMK A01 T01000038  RH  066%=      5-min Rain = 0
KBY1 250342Z 07003KT 10/04 A3012 RMK A01 T01000038  RH  065%=      5-min Rain = 0
KBY1 250343Z 07003KT 10/04 A3012 RMK A01 T01000038  RH  065%=      5-min Rain = 0
KBY1 250344Z 07004KT 10/04 A3012 RMK A01 T01010038  RH  065%=      5-min Rain = 0
KBY1 250345Z 07004KT 10/04 A3012 RMK A01 T01010037  RH  065%=      5-min Rain = 0
KBY1 250346Z 07005KT 10/04 A3012 RMK A01 T01000036  RH  064%=      5-min Rain = 0
KBY1 250347Z 07005KT 10/04 A3012 RMK A01 T00990035  RH  065%=      5-min Rain = 0
KBY1 250348Z 07005KT 10/04 A3012 RMK A01 T00980036  RH  065%=      5-min Rain = 0
KBY1 250349Z 06006KT 10/04 A3012 RMK A01 T00980036  RH  066%=      5-min Rain = 0
KBY1 250350Z 06004KT 10/04 A3012 RMK A01 T00980037  RH  066%=      5-min Rain = 0
KBY1 250351Z 06003KT 10/04 A3012 RMK A01 T00980038  RH  066%=      5-min Rain = 0
KBY1 250352Z 08003KT 10/04 A3013 RMK A01 T00990037  RH  065%=      5-min Rain = 0
KBY1 250353Z 08004KT 10/04 A3013 RMK A01 T01000037  RH  065%=      5-min Rain = 0
KBY1 250354Z 07003KT 10/04 A3013 RMK A01 T01010036  RH  064%=      5-min Rain = 0
KBY1 250355Z 07003KT 10/04 A3013 RMK A01 T01000036  RH  064%=      5-min Rain = 0
KBY1 250356Z 07003KT 10/04 A3013 RMK A01 T00990035  RH  064%=      5-min Rain = 0
KBY1 250357Z 08002KT 10/04 A3013 RMK A01 T00980035  RH  065%=      5-min Rain = 0
KBY1 250358Z 09002KT 10/04 A3013 RMK A01 T00970035  RH  065%=      5-min Rain = 0
KBY1 250359Z 09002KT 10/04 A3013 RMK A01 T00980035  RH  065%=      5-min Rain = 0
KBY1 250400Z 08002KT 10/04 A3013 RMK A01 T00980035  RH  065%=      5-min Rain = 0
KBY1 250401Z 09002KT 10/04 A3013 RMK A01 T00970035  RH  065%=      5-min Rain = 0
KBY1 250402Z 08002KT 10/04 A3013 RMK A01 T00960035  RH  065%=      5-min Rain = 0
KBY1 250403Z 07002KT 10/04 A3013 RMK A01 T00960035  RH  066%=      5-min Rain = 0
KBY1 250404Z 07002KT 10/04 A3013 RMK A01 T00960035  RH  066%=      5-min Rain = 0
KBY1 250405Z 08002KT 10/03 A3013 RMK A01 T00960034  RH  065%=      5-min Rain = 0
KBY1 250406Z 08001KT 10/03 A3014 RMK A01 T00960034  RH  065%=      5-min Rain = 0
KBY1 250407Z 07001KT 10/03 A3014 RMK A01 T00960034  RH  065%=      5-min Rain = 0
KBY1 250408Z 07001KT 10/03 A3014 RMK A01 T00960034  RH  065%=      5-min Rain = 0
KBY1 250409Z 05001KT 10/03 A3014 RMK A01 T00970034  RH  065%=      5-min Rain = 0
KBY1 250410Z 05000KT 10/03 A3014 RMK A01 T00970034  RH  065%=      5-min Rain = 0
KBY1 250411Z 00000KT 10/03 A3014 RMK A01 T00980034  RH  065%=      5-min Rain = 0
KBY1 250412Z 00000KT 10/03 A3014 RMK A01 T00980034  RH  064%=      5-min Rain = 0
KBY1 250413Z 07000KT 10/03 A3014 RMK A01 T00990034  RH  064%=      5-min Rain = 0
KBY1 250414Z 17000KT 10/03 A3015 RMK A01 T00990034  RH  064%=      5-min Rain = 0
KBY1 250415Z 05002KT 10/03 A3015 RMK A01 T00990034  RH  064%=      5-min Rain = 0
KBY1 250416Z 07003KT 10/03 A3015 RMK A01 T00990034  RH  064%=      5-min Rain = 0
KBY1 250417Z 08002KT 10/04 A3015 RMK A01 T01010035  RH  064%=      5-min Rain = 0
KBY1 250418Z 10002KT 10/04 A3015 RMK A01 T01020035  RH  063%=      5-min Rain = 0
KBY1 250419Z 12003KT 10/03 A3015 RMK A01 T01030034  RH  062%=      5-min Rain = 0
KBY1 250420Z 11004KT 10/03 A3015 RMK A01 T01040034  RH  062%=      5-min Rain = 0
KBY1 250421Z 13002KT 11/03 A3015 RMK A01 T01050034  RH  061%=      5-min Rain = 0
KBY1 250422Z 12003KT 11/03 A3015 RMK A01 T01050034  RH  061%=      5-min Rain = 0
KBY1 250423Z 11002KT 10/04 A3015 RMK A01 T01040035  RH  062%=      5-min Rain = 0
KBY1 250424Z 11003KT 10/03 A3015 RMK A01 T01020034  RH  063%=      5-min Rain = 0
KBY1 250425Z 14002KT 10/04 A3015 RMK A01 T01010036  RH  064%=      5-min Rain = 0
KBY1 250426Z 16002KT 10/04 A3015 RMK A01 T01000036  RH  064%=      5-min Rain = 0
KBY1 250427Z 13001KT 10/03 A3015 RMK A01 T01000034  RH  063%=      5-min Rain = 0
KBY1 250428Z 15002KT 10/03 A3016 RMK A01 T01010033  RH  063%=      5-min Rain = 0
KBY1 250429Z 14001KT 10/03 A3016 RMK A01 T00990033  RH  063%=      5-min Rain = 0
KBY1 250430Z 13001KT 10/03 A3016 RMK A01 T00970032  RH  064%=      5-min Rain = 0
KBY1 250431Z 11001KT 10/03 A3016 RMK A01 T00960033  RH  065%=      5-min Rain = 0
KBY1 250432Z 10001KT 10/03 A3016 RMK A01 T00960033  RH  065%=      5-min Rain = 0
KBY1 250433Z 10001KT 10/03 A3016 RMK A01 T00960033  RH  065%=      5-min Rain = 0
KBY1 250434Z 11001KT 10/03 A3016 RMK A01 T00960034  RH  065%=      5-min Rain = 0
KBY1 250435Z 11001KT 10/03 A3016 RMK A01 T00960034  RH  065%=      5-min Rain = 0
KBY1 250436Z 10001KT 10/03 A3016 RMK A01 T00960034  RH  065%=      5-min Rain = 0
KBY1 250437Z 10001KT 10/04 A3016 RMK A01 T00960035  RH  066%=      5-min Rain = 0
KBY1 250438Z 13001KT 10/04 A3016 RMK A01 T00960035  RH  066%=      5-min Rain = 0
KBY1 250439Z 12002KT 10/04 A3016 RMK A01 T00970036  RH  066%=      5-min Rain = 0
KBY1 250440Z 11001KT 10/04 A3016 RMK A01 T00980036  RH  065%=      5-min Rain = 0
KBY1 250441Z 14001KT 10/04 A3016 RMK A01 T00980035  RH  065%=      5-min Rain = 0
KBY1 250442Z 14001KT 10/04 A3016 RMK A01 T00970035  RH  065%=      5-min Rain = 0
KBY1 250443Z 11002KT 10/04 A3016 RMK A01 T00960036  RH  066%=      5-min Rain = 0
KBY1 250444Z 12001KT 10/04 A3016 RMK A01 T00960037  RH  066%=      5-min Rain = 0
KBY1 250445Z 11001KT 10/04 A3016 RMK A01 T00960037  RH  066%=      5-min Rain = 0
KBY1 250446Z 13001KT 10/04 A3016 RMK A01 T00960037  RH  067%=      5-min Rain = 0
KBY1 250447Z 11001KT 10/04 A3016 RMK A01 T00960037  RH  067%=      5-min Rain = 0
KBY1 250448Z 10002KT 10/04 A3016 RMK A01 T00960037  RH  067%=      5-min Rain = 0
KBY1 250449Z 09002KT 10/04 A3016 RMK A01 T00950038  RH  068%=      5-min Rain = 0
KBY1 250450Z 11002KT 10/04 A3016 RMK A01 T00960039  RH  068%=      5-min Rain = 0
KBY1 250451Z 12001KT 10/04 A3016 RMK A01 T00950038  RH  067%=      5-min Rain = 0
KBY1 250452Z 11002KT 10/04 A3016 RMK A01 T00950038  RH  067%=      5-min Rain = 0
KBY1 250453Z 11003KT 09/04 A3016 RMK A01 T00940037  RH  067%=      5-min Rain = 0
KBY1 250454Z 13003KT 09/04 A3017 RMK A01 T00930037  RH  068%=      5-min Rain = 0
KBY1 250455Z 13003KT 09/04 A3017 RMK A01 T00920037  RH  068%=      5-min Rain = 0
KBY1 250456Z 13004KT 09/04 A3017 RMK A01 T00900035  RH  068%=      5-min Rain = 0
KBY1 250457Z 13004KT 09/04 A3017 RMK A01 T00880035  RH  069%=      5-min Rain = 0
KBY1 250458Z 13004KT 09/04 A3017 RMK A01 T00860036  RH  070%=      5-min Rain = 0
KBY1 250459Z 13004KT 09/04 A3017 RMK A01 T00850036  RH  071%=      5-min Rain = 0

Page generated in 0.0811 seconds.